<?xml version="1.0" encoding="UTF-8" standalone="no" ?>
<gpx xmlns="http://www.topografix.com/GPX/1/1" xmlns:xsi="http://www.w3.org/2001/XMLSchema-instance" xsi:schemaLocation="http://www.topografix.com/GPX/1/1 http://www.topografix.com/GPX/1/1/gpx.xsd" version="1.1" creator="VisuGPX - https://www.visugpx.com">
  <metadata>
    <name>Argenton portzal sur les traces de l'amoco cadiz</name>
    <desc><![CDATA[Aller retour de Argenton à portzal par le sentier cotier. (marée basse)
Merci de respecter les limites pour la préservation du litoral. Le 16 mars 1978 l’Amoco Cadiz s'échouait en bordure des côtes bretonnes.   la plus grande marée noire Française de l'histoire! 48° 35,5635′ N, 4° 43,0562′ O. (en face de Portsal). Sur la plage du château,  (1/2 tour) vous pourrez vous photographier en companie de gaulois célèbres ?]]></desc>
  </metadata>
  <trk>
    <name><![CDATA[63]]></name>
    <trkseg>
      <trkpt lat="48.52942" lon="-4.74627">
        <ele>10.711792</ele>
        <time>2017-04-23T07:17:11Z</time>
      </trkpt>
      <trkpt lat="48.5295" lon="-4.74634">
        <ele>10.711792</ele>
        <time>2017-04-23T07:17:18Z</time>
      </trkpt>
      <trkpt lat="48.5296" lon="-4.74642">
        <ele>11.1925049</ele>
        <time>2017-04-23T07:17:24Z</time>
      </trkpt>
      <trkpt lat="48.52966" lon="-4.74647">
        <ele>10.2312012</ele>
        <time>2017-04-23T07:17:29Z</time>
      </trkpt>
      <trkpt lat="48.52977" lon="-4.74657">
        <ele>12.1538086</ele>
        <time>2017-04-23T07:17:37Z</time>
      </trkpt>
      <trkpt lat="48.52987" lon="-4.74668">
        <ele>14.076416</ele>
        <time>2017-04-23T07:17:46Z</time>
      </trkpt>
      <trkpt lat="48.52996" lon="-4.74681">
        <ele>13.5958252</ele>
        <time>2017-04-23T07:17:55Z</time>
      </trkpt>
      <trkpt lat="48.53006" lon="-4.74697">
        <ele>14.5570068</ele>
        <time>2017-04-23T07:18:06Z</time>
      </trkpt>
      <trkpt lat="48.53013" lon="-4.74707">
        <ele>15.0377197</ele>
        <time>2017-04-23T07:18:13Z</time>
      </trkpt>
      <trkpt lat="48.53022" lon="-4.74719">
        <ele>15.0377197</ele>
        <time>2017-04-23T07:18:21Z</time>
      </trkpt>
      <trkpt lat="48.53029" lon="-4.74731">
        <ele>14.5570068</ele>
        <time>2017-04-23T07:18:29Z</time>
      </trkpt>
      <trkpt lat="48.53036" lon="-4.74741">
        <ele>13.5958252</ele>
        <time>2017-04-23T07:18:36Z</time>
      </trkpt>
      <trkpt lat="48.53041" lon="-4.74749">
        <ele>13.1151123</ele>
        <time>2017-04-23T07:18:41Z</time>
      </trkpt>
      <trkpt lat="48.53048" lon="-4.74761">
        <ele>11.6732178</ele>
        <time>2017-04-23T07:18:49Z</time>
      </trkpt>
      <trkpt lat="48.53056" lon="-4.74772">
        <ele>10.711792</ele>
        <time>2017-04-23T07:18:57Z</time>
      </trkpt>
      <trkpt lat="48.53061" lon="-4.74785">
        <ele>10.2312012</ele>
        <time>2017-04-23T07:19:04Z</time>
      </trkpt>
      <trkpt lat="48.53066" lon="-4.74791">
        <ele>9.7506104</ele>
        <time>2017-04-23T07:19:08Z</time>
      </trkpt>
      <trkpt lat="48.53067" lon="-4.74793">
        <ele>9.7506104</ele>
        <time>2017-04-23T07:19:09Z</time>
      </trkpt>
      <trkpt lat="48.53072" lon="-4.74807">
        <ele>9.2698975</ele>
        <time>2017-04-23T07:19:16Z</time>
      </trkpt>
      <trkpt lat="48.53077" lon="-4.74821">
        <ele>8.7891846</ele>
        <time>2017-04-23T07:19:23Z</time>
      </trkpt>
      <trkpt lat="48.53084" lon="-4.74835">
        <ele>9.2698975</ele>
        <time>2017-04-23T07:19:30Z</time>
      </trkpt>
      <trkpt lat="48.53092" lon="-4.74848">
        <ele>10.2312012</ele>
        <time>2017-04-23T07:19:37Z</time>
      </trkpt>
      <trkpt lat="48.53099" lon="-4.74861">
        <ele>11.1925049</ele>
        <time>2017-04-23T07:19:44Z</time>
      </trkpt>
      <trkpt lat="48.53105" lon="-4.74874">
        <ele>10.711792</ele>
        <time>2017-04-23T07:19:51Z</time>
      </trkpt>
      <trkpt lat="48.53111" lon="-4.74882">
        <ele>11.1925049</ele>
        <time>2017-04-23T07:19:56Z</time>
      </trkpt>
      <trkpt lat="48.53119" lon="-4.74896">
        <ele>11.6732178</ele>
        <time>2017-04-23T07:20:04Z</time>
      </trkpt>
      <trkpt lat="48.53127" lon="-4.74906">
        <ele>12.6343994</ele>
        <time>2017-04-23T07:20:11Z</time>
      </trkpt>
      <trkpt lat="48.53138" lon="-4.7492">
        <ele>12.6343994</ele>
        <time>2017-04-23T07:20:21Z</time>
      </trkpt>
      <trkpt lat="48.53147" lon="-4.7493">
        <ele>12.1538086</ele>
        <time>2017-04-23T07:20:29Z</time>
      </trkpt>
      <trkpt lat="48.53156" lon="-4.74941">
        <ele>12.6343994</ele>
        <time>2017-04-23T07:20:37Z</time>
      </trkpt>
      <trkpt lat="48.53161" lon="-4.74948">
        <ele>13.5958252</ele>
        <time>2017-04-23T07:20:41Z</time>
      </trkpt>
      <trkpt lat="48.53168" lon="-4.74955">
        <ele>14.076416</ele>
        <time>2017-04-23T07:20:46Z</time>
      </trkpt>
      <trkpt lat="48.53175" lon="-4.74962">
        <ele>13.5958252</ele>
        <time>2017-04-23T07:20:51Z</time>
      </trkpt>
      <trkpt lat="48.5318" lon="-4.74971">
        <ele>12.6343994</ele>
        <time>2017-04-23T07:20:57Z</time>
      </trkpt>
      <trkpt lat="48.53187" lon="-4.74982">
        <ele>12.1538086</ele>
        <time>2017-04-23T07:21:04Z</time>
      </trkpt>
      <trkpt lat="48.53195" lon="-4.74992">
        <ele>11.6732178</ele>
        <time>2017-04-23T07:21:11Z</time>
      </trkpt>
      <trkpt lat="48.53206" lon="-4.75004">
        <ele>12.6343994</ele>
        <time>2017-04-23T07:21:20Z</time>
      </trkpt>
      <trkpt lat="48.53216" lon="-4.75013">
        <ele>13.5958252</ele>
        <time>2017-04-23T07:21:28Z</time>
      </trkpt>
      <trkpt lat="48.53226" lon="-4.75021">
        <ele>13.1151123</ele>
        <time>2017-04-23T07:21:36Z</time>
      </trkpt>
      <trkpt lat="48.53236" lon="-4.75025">
        <ele>12.6343994</ele>
        <time>2017-04-23T07:21:43Z</time>
      </trkpt>
      <trkpt lat="48.53247" lon="-4.75028">
        <ele>12.1538086</ele>
        <time>2017-04-23T07:21:53Z</time>
      </trkpt>
      <trkpt lat="48.53251" lon="-4.75032">
        <ele>12.1538086</ele>
        <time>2017-04-23T07:22:00Z</time>
      </trkpt>
      <trkpt lat="48.53255" lon="-4.75042">
        <ele>10.711792</ele>
        <time>2017-04-23T07:22:06Z</time>
      </trkpt>
      <trkpt lat="48.53263" lon="-4.75051">
        <ele>9.2698975</ele>
        <time>2017-04-23T07:22:12Z</time>
      </trkpt>
      <trkpt lat="48.53268" lon="-4.75062">
        <ele>7.8278809</ele>
        <time>2017-04-23T07:22:18Z</time>
      </trkpt>
      <trkpt lat="48.53269" lon="-4.75064">
        <ele>7.8278809</ele>
        <time>2017-04-23T07:22:19Z</time>
      </trkpt>
      <trkpt lat="48.53274" lon="-4.75068">
        <ele>7.347168</ele>
        <time>2017-04-23T07:22:23Z</time>
      </trkpt>
      <trkpt lat="48.53287" lon="-4.7508">
        <ele>8.3085938</ele>
        <time>2017-04-23T07:22:33Z</time>
      </trkpt>
      <trkpt lat="48.53296" lon="-4.75087">
        <ele>8.3085938</ele>
        <time>2017-04-23T07:22:40Z</time>
      </trkpt>
      <trkpt lat="48.53309" lon="-4.75093">
        <ele>8.7891846</ele>
        <time>2017-04-23T07:22:49Z</time>
      </trkpt>
      <trkpt lat="48.53318" lon="-4.75093">
        <ele>10.2312012</ele>
        <time>2017-04-23T07:22:55Z</time>
      </trkpt>
      <trkpt lat="48.53327" lon="-4.75092">
        <ele>10.711792</ele>
        <time>2017-04-23T07:23:01Z</time>
      </trkpt>
      <trkpt lat="48.53338" lon="-4.75095">
        <ele>10.711792</ele>
        <time>2017-04-23T07:23:09Z</time>
      </trkpt>
      <trkpt lat="48.53344" lon="-4.75097">
        <ele>10.711792</ele>
        <time>2017-04-23T07:23:14Z</time>
      </trkpt>
      <trkpt lat="48.53351" lon="-4.75095">
        <ele>10.711792</ele>
        <time>2017-04-23T07:23:21Z</time>
      </trkpt>
      <trkpt lat="48.53357" lon="-4.75085">
        <ele>11.6732178</ele>
        <time>2017-04-23T07:23:28Z</time>
      </trkpt>
      <trkpt lat="48.53361" lon="-4.75071">
        <ele>11.1925049</ele>
        <time>2017-04-23T07:23:36Z</time>
      </trkpt>
      <trkpt lat="48.53366" lon="-4.75062">
        <ele>11.6732178</ele>
        <time>2017-04-23T07:23:43Z</time>
      </trkpt>
      <trkpt lat="48.53372" lon="-4.75052">
        <ele>12.1538086</ele>
        <time>2017-04-23T07:23:49Z</time>
      </trkpt>
      <trkpt lat="48.53374" lon="-4.75043">
        <ele>12.6343994</ele>
        <time>2017-04-23T07:23:53Z</time>
      </trkpt>
      <trkpt lat="48.53377" lon="-4.75029">
        <ele>14.5570068</ele>
        <time>2017-04-23T07:24:01Z</time>
      </trkpt>
      <trkpt lat="48.53381" lon="-4.75018">
        <ele>15.5184326</ele>
        <time>2017-04-23T07:24:07Z</time>
      </trkpt>
      <trkpt lat="48.53381" lon="-4.75016">
        <ele>15.5184326</ele>
        <time>2017-04-23T07:24:08Z</time>
      </trkpt>
      <trkpt lat="48.53388" lon="-4.75002">
        <ele>15.5184326</ele>
        <time>2017-04-23T07:24:16Z</time>
      </trkpt>
      <trkpt lat="48.53396" lon="-4.74992">
        <ele>15.0377197</ele>
        <time>2017-04-23T07:24:23Z</time>
      </trkpt>
      <trkpt lat="48.53404" lon="-4.7498">
        <ele>15.5184326</ele>
        <time>2017-04-23T07:24:31Z</time>
      </trkpt>
      <trkpt lat="48.53414" lon="-4.74971">
        <ele>15.9990234</ele>
        <time>2017-04-23T07:24:38Z</time>
      </trkpt>
      <trkpt lat="48.53422" lon="-4.74964">
        <ele>16.4797363</ele>
        <time>2017-04-23T07:24:45Z</time>
      </trkpt>
      <trkpt lat="48.53429" lon="-4.74961">
        <ele>15.9990234</ele>
        <time>2017-04-23T07:24:52Z</time>
      </trkpt>
      <trkpt lat="48.53433" lon="-4.7496">
        <ele>15.9990234</ele>
        <time>2017-04-23T07:24:55Z</time>
      </trkpt>
      <trkpt lat="48.53443" lon="-4.74952">
        <ele>15.5184326</ele>
        <time>2017-04-23T07:25:04Z</time>
      </trkpt>
      <trkpt lat="48.5345" lon="-4.7495">
        <ele>14.5570068</ele>
        <time>2017-04-23T07:25:10Z</time>
      </trkpt>
      <trkpt lat="48.5346" lon="-4.74946">
        <ele>14.076416</ele>
        <time>2017-04-23T07:25:18Z</time>
      </trkpt>
      <trkpt lat="48.53468" lon="-4.74938">
        <ele>14.076416</ele>
        <time>2017-04-23T07:25:25Z</time>
      </trkpt>
      <trkpt lat="48.53476" lon="-4.74931">
        <ele>14.5570068</ele>
        <time>2017-04-23T07:25:32Z</time>
      </trkpt>
      <trkpt lat="48.53481" lon="-4.74927">
        <ele>15.0377197</ele>
        <time>2017-04-23T07:25:36Z</time>
      </trkpt>
      <trkpt lat="48.53486" lon="-4.74926">
        <ele>14.5570068</ele>
        <time>2017-04-23T07:25:40Z</time>
      </trkpt>
      <trkpt lat="48.53498" lon="-4.74924">
        <ele>14.5570068</ele>
        <time>2017-04-23T07:25:48Z</time>
      </trkpt>
      <trkpt lat="48.53509" lon="-4.74919">
        <ele>15.0377197</ele>
        <time>2017-04-23T07:25:55Z</time>
      </trkpt>
      <trkpt lat="48.53519" lon="-4.74914">
        <ele>15.9990234</ele>
        <time>2017-04-23T07:26:02Z</time>
      </trkpt>
      <trkpt lat="48.5353" lon="-4.74906">
        <ele>16.4797363</ele>
        <time>2017-04-23T07:26:10Z</time>
      </trkpt>
      <trkpt lat="48.53538" lon="-4.74898">
        <ele>16.9604492</ele>
        <time>2017-04-23T07:26:17Z</time>
      </trkpt>
      <trkpt lat="48.53549" lon="-4.74889">
        <ele>17.4411621</ele>
        <time>2017-04-23T07:26:25Z</time>
      </trkpt>
      <trkpt lat="48.53563" lon="-4.74882">
        <ele>17.9217529</ele>
        <time>2017-04-23T07:26:34Z</time>
      </trkpt>
      <trkpt lat="48.53575" lon="-4.74878">
        <ele>18.4023438</ele>
        <time>2017-04-23T07:26:43Z</time>
      </trkpt>
      <trkpt lat="48.53583" lon="-4.74875">
        <ele>18.4023438</ele>
        <time>2017-04-23T07:26:49Z</time>
      </trkpt>
      <trkpt lat="48.53593" lon="-4.74871">
        <ele>18.4023438</ele>
        <time>2017-04-23T07:26:56Z</time>
      </trkpt>
      <trkpt lat="48.53606" lon="-4.74863">
        <ele>19.3637695</ele>
        <time>2017-04-23T07:27:06Z</time>
      </trkpt>
      <trkpt lat="48.53614" lon="-4.74856">
        <ele>20.3249512</ele>
        <time>2017-04-23T07:27:13Z</time>
      </trkpt>
      <trkpt lat="48.53616" lon="-4.74855">
        <ele>20.3249512</ele>
        <time>2017-04-23T07:27:14Z</time>
      </trkpt>
      <trkpt lat="48.53622" lon="-4.74852">
        <ele>20.3249512</ele>
        <time>2017-04-23T07:27:19Z</time>
      </trkpt>
      <trkpt lat="48.53632" lon="-4.74848">
        <ele>20.3249512</ele>
        <time>2017-04-23T07:27:26Z</time>
      </trkpt>
      <trkpt lat="48.53642" lon="-4.74844">
        <ele>20.8056641</ele>
        <time>2017-04-23T07:27:33Z</time>
      </trkpt>
      <trkpt lat="48.53656" lon="-4.74841">
        <ele>20.3249512</ele>
        <time>2017-04-23T07:27:42Z</time>
      </trkpt>
      <trkpt lat="48.53669" lon="-4.74837">
        <ele>20.3249512</ele>
        <time>2017-04-23T07:27:50Z</time>
      </trkpt>
      <trkpt lat="48.53677" lon="-4.74839">
        <ele>19.8443604</ele>
        <time>2017-04-23T07:27:55Z</time>
      </trkpt>
      <trkpt lat="48.53678" lon="-4.74839">
        <ele>19.3637695</ele>
        <time>2017-04-23T07:27:56Z</time>
      </trkpt>
      <trkpt lat="48.5369" lon="-4.74844">
        <ele>18.4023438</ele>
        <time>2017-04-23T07:28:04Z</time>
      </trkpt>
      <trkpt lat="48.53692" lon="-4.74847">
        <ele>17.9217529</ele>
        <time>2017-04-23T07:28:06Z</time>
      </trkpt>
      <trkpt lat="48.53697" lon="-4.74848">
        <ele>17.9217529</ele>
        <time>2017-04-23T07:28:10Z</time>
      </trkpt>
      <trkpt lat="48.5371" lon="-4.74853">
        <ele>17.9217529</ele>
        <time>2017-04-23T07:28:19Z</time>
      </trkpt>
      <trkpt lat="48.53717" lon="-4.74855">
        <ele>17.9217529</ele>
        <time>2017-04-23T07:28:24Z</time>
      </trkpt>
      <trkpt lat="48.53729" lon="-4.74857">
        <ele>17.9217529</ele>
        <time>2017-04-23T07:28:32Z</time>
      </trkpt>
      <trkpt lat="48.53737" lon="-4.74858">
        <ele>17.9217529</ele>
        <time>2017-04-23T07:28:38Z</time>
      </trkpt>
      <trkpt lat="48.53746" lon="-4.74865">
        <ele>16.4797363</ele>
        <time>2017-04-23T07:28:45Z</time>
      </trkpt>
      <trkpt lat="48.53754" lon="-4.74871">
        <ele>15.9990234</ele>
        <time>2017-04-23T07:28:51Z</time>
      </trkpt>
      <trkpt lat="48.53761" lon="-4.74878">
        <ele>15.9990234</ele>
        <time>2017-04-23T07:28:57Z</time>
      </trkpt>
      <trkpt lat="48.5377" lon="-4.74884">
        <ele>15.5184326</ele>
        <time>2017-04-23T07:29:04Z</time>
      </trkpt>
      <trkpt lat="48.53777" lon="-4.74887">
        <ele>15.9990234</ele>
        <time>2017-04-23T07:29:09Z</time>
      </trkpt>
      <trkpt lat="48.53787" lon="-4.74894">
        <ele>17.4411621</ele>
        <time>2017-04-23T07:29:15Z</time>
      </trkpt>
      <trkpt lat="48.53794" lon="-4.74904">
        <ele>16.9604492</ele>
        <time>2017-04-23T07:29:22Z</time>
      </trkpt>
      <trkpt lat="48.53801" lon="-4.74912">
        <ele>16.4797363</ele>
        <time>2017-04-23T07:29:28Z</time>
      </trkpt>
      <trkpt lat="48.53806" lon="-4.74918">
        <ele>15.9990234</ele>
        <time>2017-04-23T07:29:32Z</time>
      </trkpt>
      <trkpt lat="48.53807" lon="-4.74919">
        <ele>15.9990234</ele>
        <time>2017-04-23T07:29:33Z</time>
      </trkpt>
      <trkpt lat="48.53816" lon="-4.7493">
        <ele>16.4797363</ele>
        <time>2017-04-23T07:29:41Z</time>
      </trkpt>
      <trkpt lat="48.53823" lon="-4.74936">
        <ele>16.9604492</ele>
        <time>2017-04-23T07:29:47Z</time>
      </trkpt>
      <trkpt lat="48.53829" lon="-4.74939">
        <ele>16.9604492</ele>
        <time>2017-04-23T07:29:52Z</time>
      </trkpt>
      <trkpt lat="48.53839" lon="-4.74947">
        <ele>17.4411621</ele>
        <time>2017-04-23T07:30:00Z</time>
      </trkpt>
      <trkpt lat="48.53851" lon="-4.74954">
        <ele>17.9217529</ele>
        <time>2017-04-23T07:30:08Z</time>
      </trkpt>
      <trkpt lat="48.5386" lon="-4.7496">
        <ele>17.4411621</ele>
        <time>2017-04-23T07:30:14Z</time>
      </trkpt>
      <trkpt lat="48.53868" lon="-4.74965">
        <ele>17.4411621</ele>
        <time>2017-04-23T07:30:19Z</time>
      </trkpt>
      <trkpt lat="48.53883" lon="-4.74966">
        <ele>17.4411621</ele>
        <time>2017-04-23T07:30:29Z</time>
      </trkpt>
      <trkpt lat="48.53898" lon="-4.7497">
        <ele>17.9217529</ele>
        <time>2017-04-23T07:30:38Z</time>
      </trkpt>
      <trkpt lat="48.53911" lon="-4.74974">
        <ele>17.9217529</ele>
        <time>2017-04-23T07:30:46Z</time>
      </trkpt>
      <trkpt lat="48.53921" lon="-4.74979">
        <ele>18.4023438</ele>
        <time>2017-04-23T07:30:52Z</time>
      </trkpt>
      <trkpt lat="48.53933" lon="-4.74983">
        <ele>17.9217529</ele>
        <time>2017-04-23T07:31:01Z</time>
      </trkpt>
      <trkpt lat="48.53942" lon="-4.74988">
        <ele>18.4023438</ele>
        <time>2017-04-23T07:31:07Z</time>
      </trkpt>
      <trkpt lat="48.53956" lon="-4.74993">
        <ele>18.4023438</ele>
        <time>2017-04-23T07:31:16Z</time>
      </trkpt>
      <trkpt lat="48.53966" lon="-4.74997">
        <ele>18.4023438</ele>
        <time>2017-04-23T07:31:23Z</time>
      </trkpt>
      <trkpt lat="48.53979" lon="-4.75001">
        <ele>18.8830566</ele>
        <time>2017-04-23T07:31:31Z</time>
      </trkpt>
      <trkpt lat="48.53989" lon="-4.75">
        <ele>19.8443604</ele>
        <time>2017-04-23T07:31:38Z</time>
      </trkpt>
      <trkpt lat="48.53998" lon="-4.74992">
        <ele>22.2475586</ele>
        <time>2017-04-23T07:31:45Z</time>
      </trkpt>
      <trkpt lat="48.54006" lon="-4.74989">
        <ele>24.1702881</ele>
        <time>2017-04-23T07:31:52Z</time>
      </trkpt>
      <trkpt lat="48.54012" lon="-4.74984">
        <ele>26.0928955</ele>
        <time>2017-04-23T07:32:00Z</time>
      </trkpt>
      <trkpt lat="48.54017" lon="-4.74976">
        <ele>27.0543213</ele>
        <time>2017-04-23T07:32:06Z</time>
      </trkpt>
      <trkpt lat="48.54026" lon="-4.74968">
        <ele>28.9769287</ele>
        <time>2017-04-23T07:32:14Z</time>
      </trkpt>
      <trkpt lat="48.54037" lon="-4.74965">
        <ele>29.4575195</ele>
        <time>2017-04-23T07:32:22Z</time>
      </trkpt>
      <trkpt lat="48.54049" lon="-4.74964">
        <ele>29.4575195</ele>
        <time>2017-04-23T07:32:30Z</time>
      </trkpt>
      <trkpt lat="48.54061" lon="-4.74963">
        <ele>28.4962158</ele>
        <time>2017-04-23T07:32:38Z</time>
      </trkpt>
      <trkpt lat="48.54071" lon="-4.74962">
        <ele>28.9769287</ele>
        <time>2017-04-23T07:32:45Z</time>
      </trkpt>
      <trkpt lat="48.54083" lon="-4.74957">
        <ele>28.4962158</ele>
        <time>2017-04-23T07:32:53Z</time>
      </trkpt>
      <trkpt lat="48.54094" lon="-4.74954">
        <ele>28.9769287</ele>
        <time>2017-04-23T07:33:01Z</time>
      </trkpt>
      <trkpt lat="48.54104" lon="-4.74953">
        <ele>28.9769287</ele>
        <time>2017-04-23T07:33:07Z</time>
      </trkpt>
      <trkpt lat="48.54118" lon="-4.74952">
        <ele>29.4575195</ele>
        <time>2017-04-23T07:33:16Z</time>
      </trkpt>
      <trkpt lat="48.54133" lon="-4.74952">
        <ele>29.4575195</ele>
        <time>2017-04-23T07:33:25Z</time>
      </trkpt>
      <trkpt lat="48.54147" lon="-4.74955">
        <ele>28.9769287</ele>
        <time>2017-04-23T07:33:34Z</time>
      </trkpt>
      <trkpt lat="48.54162" lon="-4.7496">
        <ele>28.4962158</ele>
        <time>2017-04-23T07:33:44Z</time>
      </trkpt>
      <trkpt lat="48.54172" lon="-4.74966">
        <ele>28.4962158</ele>
        <time>2017-04-23T07:33:51Z</time>
      </trkpt>
      <trkpt lat="48.54182" lon="-4.74968">
        <ele>28.0155029</ele>
        <time>2017-04-23T07:33:57Z</time>
      </trkpt>
      <trkpt lat="48.54195" lon="-4.74969">
        <ele>28.0155029</ele>
        <time>2017-04-23T07:34:05Z</time>
      </trkpt>
      <trkpt lat="48.54211" lon="-4.74971">
        <ele>28.9769287</ele>
        <time>2017-04-23T07:34:15Z</time>
      </trkpt>
      <trkpt lat="48.54217" lon="-4.74982">
        <ele>28.0155029</ele>
        <time>2017-04-23T07:34:22Z</time>
      </trkpt>
      <trkpt lat="48.54223" lon="-4.74998">
        <ele>28.0155029</ele>
        <time>2017-04-23T07:34:30Z</time>
      </trkpt>
      <trkpt lat="48.54227" lon="-4.75012">
        <ele>28.0155029</ele>
        <time>2017-04-23T07:34:37Z</time>
      </trkpt>
      <trkpt lat="48.54232" lon="-4.7503">
        <ele>26.5736084</ele>
        <time>2017-04-23T07:34:46Z</time>
      </trkpt>
      <trkpt lat="48.54236" lon="-4.75042">
        <ele>25.1317139</ele>
        <time>2017-04-23T07:34:52Z</time>
      </trkpt>
      <trkpt lat="48.54238" lon="-4.7505">
        <ele>23.2089844</ele>
        <time>2017-04-23T07:34:56Z</time>
      </trkpt>
      <trkpt lat="48.54242" lon="-4.75058">
        <ele>22.2475586</ele>
        <time>2017-04-23T07:35:00Z</time>
      </trkpt>
      <trkpt lat="48.54246" lon="-4.75063">
        <ele>22.2475586</ele>
        <time>2017-04-23T07:35:04Z</time>
      </trkpt>
      <trkpt lat="48.54251" lon="-4.75071">
        <ele>21.7669678</ele>
        <time>2017-04-23T07:35:09Z</time>
      </trkpt>
      <trkpt lat="48.54255" lon="-4.75075">
        <ele>21.286377</ele>
        <time>2017-04-23T07:35:13Z</time>
      </trkpt>
      <trkpt lat="48.5426" lon="-4.75084">
        <ele>20.8056641</ele>
        <time>2017-04-23T07:35:18Z</time>
      </trkpt>
      <trkpt lat="48.54267" lon="-4.75093">
        <ele>20.3249512</ele>
        <time>2017-04-23T07:35:25Z</time>
      </trkpt>
      <trkpt lat="48.54278" lon="-4.75106">
        <ele>18.8830566</ele>
        <time>2017-04-23T07:35:35Z</time>
      </trkpt>
      <trkpt lat="48.54288" lon="-4.75113">
        <ele>17.9217529</ele>
        <time>2017-04-23T07:35:43Z</time>
      </trkpt>
      <trkpt lat="48.54296" lon="-4.75118">
        <ele>17.4411621</ele>
        <time>2017-04-23T07:35:48Z</time>
      </trkpt>
      <trkpt lat="48.54302" lon="-4.75122">
        <ele>16.9604492</ele>
        <time>2017-04-23T07:35:53Z</time>
      </trkpt>
      <trkpt lat="48.5431" lon="-4.75124">
        <ele>16.4797363</ele>
        <time>2017-04-23T07:35:59Z</time>
      </trkpt>
      <trkpt lat="48.54313" lon="-4.75115">
        <ele>16.9604492</ele>
        <time>2017-04-23T07:36:05Z</time>
      </trkpt>
      <trkpt lat="48.54313" lon="-4.7511">
        <ele>15.9990234</ele>
        <time>2017-04-23T07:36:07Z</time>
      </trkpt>
      <trkpt lat="48.54313" lon="-4.75092">
        <ele>14.5570068</ele>
        <time>2017-04-23T07:36:14Z</time>
      </trkpt>
      <trkpt lat="48.54313" lon="-4.75076">
        <ele>14.5570068</ele>
        <time>2017-04-23T07:36:21Z</time>
      </trkpt>
      <trkpt lat="48.54312" lon="-4.75066">
        <ele>13.5958252</ele>
        <time>2017-04-23T07:36:25Z</time>
      </trkpt>
      <trkpt lat="48.54313" lon="-4.75052">
        <ele>14.076416</ele>
        <time>2017-04-23T07:36:31Z</time>
      </trkpt>
      <trkpt lat="48.54314" lon="-4.75029">
        <ele>15.5184326</ele>
        <time>2017-04-23T07:36:40Z</time>
      </trkpt>
      <trkpt lat="48.54315" lon="-4.75012">
        <ele>15.9990234</ele>
        <time>2017-04-23T07:36:47Z</time>
      </trkpt>
      <trkpt lat="48.54317" lon="-4.74995">
        <ele>15.9990234</ele>
        <time>2017-04-23T07:36:55Z</time>
      </trkpt>
      <trkpt lat="48.54319" lon="-4.74973">
        <ele>15.9990234</ele>
        <time>2017-04-23T07:37:05Z</time>
      </trkpt>
      <trkpt lat="48.54325" lon="-4.74953">
        <ele>16.4797363</ele>
        <time>2017-04-23T07:37:14Z</time>
      </trkpt>
      <trkpt lat="48.54332" lon="-4.7494">
        <ele>16.4797363</ele>
        <time>2017-04-23T07:37:21Z</time>
      </trkpt>
      <trkpt lat="48.54337" lon="-4.74925">
        <ele>15.9990234</ele>
        <time>2017-04-23T07:37:29Z</time>
      </trkpt>
      <trkpt lat="48.54343" lon="-4.74911">
        <ele>15.9990234</ele>
        <time>2017-04-23T07:37:36Z</time>
      </trkpt>
      <trkpt lat="48.54349" lon="-4.74902">
        <ele>15.9990234</ele>
        <time>2017-04-23T07:37:42Z</time>
      </trkpt>
      <trkpt lat="48.54354" lon="-4.74889">
        <ele>15.0377197</ele>
        <time>2017-04-23T07:37:49Z</time>
      </trkpt>
      <trkpt lat="48.54361" lon="-4.74876">
        <ele>14.5570068</ele>
        <time>2017-04-23T07:37:56Z</time>
      </trkpt>
      <trkpt lat="48.54364" lon="-4.74857">
        <ele>15.0377197</ele>
        <time>2017-04-23T07:38:04Z</time>
      </trkpt>
      <trkpt lat="48.54367" lon="-4.74846">
        <ele>15.0377197</ele>
        <time>2017-04-23T07:38:10Z</time>
      </trkpt>
      <trkpt lat="48.54376" lon="-4.74821">
        <ele>14.076416</ele>
        <time>2017-04-23T07:38:21Z</time>
      </trkpt>
      <trkpt lat="48.54385" lon="-4.74799">
        <ele>13.1151123</ele>
        <time>2017-04-23T07:38:32Z</time>
      </trkpt>
      <trkpt lat="48.54393" lon="-4.74779">
        <ele>12.1538086</ele>
        <time>2017-04-23T07:38:41Z</time>
      </trkpt>
      <trkpt lat="48.54398" lon="-4.7476">
        <ele>12.1538086</ele>
        <time>2017-04-23T07:38:49Z</time>
      </trkpt>
      <trkpt lat="48.54401" lon="-4.74745">
        <ele>12.6343994</ele>
        <time>2017-04-23T07:38:55Z</time>
      </trkpt>
      <trkpt lat="48.54405" lon="-4.7473">
        <ele>12.6343994</ele>
        <time>2017-04-23T07:39:02Z</time>
      </trkpt>
      <trkpt lat="48.54411" lon="-4.74715">
        <ele>11.1925049</ele>
        <time>2017-04-23T07:39:10Z</time>
      </trkpt>
      <trkpt lat="48.54418" lon="-4.74704">
        <ele>10.711792</ele>
        <time>2017-04-23T07:39:17Z</time>
      </trkpt>
      <trkpt lat="48.54424" lon="-4.74695">
        <ele>10.711792</ele>
        <time>2017-04-23T07:39:23Z</time>
      </trkpt>
      <trkpt lat="48.54432" lon="-4.7468">
        <ele>10.2312012</ele>
        <time>2017-04-23T07:39:32Z</time>
      </trkpt>
      <trkpt lat="48.54439" lon="-4.74667">
        <ele>10.2312012</ele>
        <time>2017-04-23T07:39:40Z</time>
      </trkpt>
      <trkpt lat="48.54441" lon="-4.74658">
        <ele>9.2698975</ele>
        <time>2017-04-23T07:39:47Z</time>
      </trkpt>
      <trkpt lat="48.54444" lon="-4.74652">
        <ele>9.2698975</ele>
        <time>2017-04-23T07:39:53Z</time>
      </trkpt>
      <trkpt lat="48.54454" lon="-4.74656">
        <ele>8.3085938</ele>
        <time>2017-04-23T07:40:00Z</time>
      </trkpt>
      <trkpt lat="48.54467" lon="-4.74653">
        <ele>8.7891846</ele>
        <time>2017-04-23T07:40:09Z</time>
      </trkpt>
      <trkpt lat="48.54475" lon="-4.74646">
        <ele>9.2698975</ele>
        <time>2017-04-23T07:40:16Z</time>
      </trkpt>
      <trkpt lat="48.54482" lon="-4.74637">
        <ele>10.2312012</ele>
        <time>2017-04-23T07:40:22Z</time>
      </trkpt>
      <trkpt lat="48.5449" lon="-4.74627">
        <ele>11.6732178</ele>
        <time>2017-04-23T07:40:28Z</time>
      </trkpt>
      <trkpt lat="48.54492" lon="-4.74625">
        <ele>12.1538086</ele>
        <time>2017-04-23T07:40:30Z</time>
      </trkpt>
      <trkpt lat="48.54497" lon="-4.74614">
        <ele>12.1538086</ele>
        <time>2017-04-23T07:40:36Z</time>
      </trkpt>
      <trkpt lat="48.54499" lon="-4.74611">
        <ele>12.6343994</ele>
        <time>2017-04-23T07:40:38Z</time>
      </trkpt>
      <trkpt lat="48.54504" lon="-4.74605">
        <ele>13.5958252</ele>
        <time>2017-04-23T07:40:42Z</time>
      </trkpt>
      <trkpt lat="48.54515" lon="-4.74595">
        <ele>13.5958252</ele>
        <time>2017-04-23T07:40:49Z</time>
      </trkpt>
      <trkpt lat="48.54525" lon="-4.74583">
        <ele>14.076416</ele>
        <time>2017-04-23T07:40:58Z</time>
      </trkpt>
      <trkpt lat="48.54534" lon="-4.74573">
        <ele>14.076416</ele>
        <time>2017-04-23T07:41:06Z</time>
      </trkpt>
      <trkpt lat="48.54544" lon="-4.74567">
        <ele>15.0377197</ele>
        <time>2017-04-23T07:41:13Z</time>
      </trkpt>
      <trkpt lat="48.54557" lon="-4.74561">
        <ele>15.5184326</ele>
        <time>2017-04-23T07:41:22Z</time>
      </trkpt>
      <trkpt lat="48.54568" lon="-4.74562">
        <ele>15.0377197</ele>
        <time>2017-04-23T07:41:29Z</time>
      </trkpt>
      <trkpt lat="48.54579" lon="-4.74563">
        <ele>14.076416</ele>
        <time>2017-04-23T07:41:37Z</time>
      </trkpt>
      <trkpt lat="48.54588" lon="-4.74569">
        <ele>14.076416</ele>
        <time>2017-04-23T07:41:43Z</time>
      </trkpt>
      <trkpt lat="48.546" lon="-4.74577">
        <ele>13.5958252</ele>
        <time>2017-04-23T07:41:52Z</time>
      </trkpt>
      <trkpt lat="48.54609" lon="-4.74575">
        <ele>14.076416</ele>
        <time>2017-04-23T07:41:59Z</time>
      </trkpt>
      <trkpt lat="48.54614" lon="-4.74567">
        <ele>15.0377197</ele>
        <time>2017-04-23T07:42:05Z</time>
      </trkpt>
      <trkpt lat="48.54615" lon="-4.74556">
        <ele>15.5184326</ele>
        <time>2017-04-23T07:42:10Z</time>
      </trkpt>
      <trkpt lat="48.54616" lon="-4.74551">
        <ele>15.5184326</ele>
        <time>2017-04-23T07:42:12Z</time>
      </trkpt>
      <trkpt lat="48.54614" lon="-4.74534">
        <ele>15.5184326</ele>
        <time>2017-04-23T07:42:19Z</time>
      </trkpt>
      <trkpt lat="48.54615" lon="-4.74517">
        <ele>14.5570068</ele>
        <time>2017-04-23T07:42:26Z</time>
      </trkpt>
      <trkpt lat="48.54616" lon="-4.74499">
        <ele>13.5958252</ele>
        <time>2017-04-23T07:42:33Z</time>
      </trkpt>
      <trkpt lat="48.54617" lon="-4.74487">
        <ele>13.1151123</ele>
        <time>2017-04-23T07:42:38Z</time>
      </trkpt>
      <trkpt lat="48.54619" lon="-4.74474">
        <ele>11.1925049</ele>
        <time>2017-04-23T07:42:44Z</time>
      </trkpt>
      <trkpt lat="48.5462" lon="-4.74472">
        <ele>11.1925049</ele>
        <time>2017-04-23T07:42:45Z</time>
      </trkpt>
      <trkpt lat="48.54627" lon="-4.74458">
        <ele>11.1925049</ele>
        <time>2017-04-23T07:42:52Z</time>
      </trkpt>
      <trkpt lat="48.54631" lon="-4.74451">
        <ele>11.1925049</ele>
        <time>2017-04-23T07:42:56Z</time>
      </trkpt>
      <trkpt lat="48.54633" lon="-4.74448">
        <ele>10.711792</ele>
        <time>2017-04-23T07:42:58Z</time>
      </trkpt>
      <trkpt lat="48.54637" lon="-4.7444">
        <ele>11.6732178</ele>
        <time>2017-04-23T07:43:02Z</time>
      </trkpt>
      <trkpt lat="48.54644" lon="-4.74428">
        <ele>11.6732178</ele>
        <time>2017-04-23T07:43:09Z</time>
      </trkpt>
      <trkpt lat="48.54652" lon="-4.74421">
        <ele>12.1538086</ele>
        <time>2017-04-23T07:43:15Z</time>
      </trkpt>
      <trkpt lat="48.54664" lon="-4.74414">
        <ele>12.6343994</ele>
        <time>2017-04-23T07:43:23Z</time>
      </trkpt>
      <trkpt lat="48.54675" lon="-4.74404">
        <ele>13.5958252</ele>
        <time>2017-04-23T07:43:31Z</time>
      </trkpt>
      <trkpt lat="48.54675" lon="-4.74403">
        <ele>13.5958252</ele>
        <time>2017-04-23T07:43:32Z</time>
      </trkpt>
      <trkpt lat="48.54679" lon="-4.74395">
        <ele>13.5958252</ele>
        <time>2017-04-23T07:43:36Z</time>
      </trkpt>
      <trkpt lat="48.54683" lon="-4.74385">
        <ele>13.5958252</ele>
        <time>2017-04-23T07:43:42Z</time>
      </trkpt>
      <trkpt lat="48.54685" lon="-4.74375">
        <ele>13.5958252</ele>
        <time>2017-04-23T07:43:47Z</time>
      </trkpt>
      <trkpt lat="48.54688" lon="-4.74368">
        <ele>13.1151123</ele>
        <time>2017-04-23T07:43:51Z</time>
      </trkpt>
      <trkpt lat="48.54687" lon="-4.74357">
        <ele>12.1538086</ele>
        <time>2017-04-23T07:43:56Z</time>
      </trkpt>
      <trkpt lat="48.54686" lon="-4.74349">
        <ele>11.6732178</ele>
        <time>2017-04-23T07:43:59Z</time>
      </trkpt>
      <trkpt lat="48.54683" lon="-4.74343">
        <ele>11.6732178</ele>
        <time>2017-04-23T07:44:02Z</time>
      </trkpt>
      <trkpt lat="48.54679" lon="-4.74333">
        <ele>10.711792</ele>
        <time>2017-04-23T07:44:07Z</time>
      </trkpt>
      <trkpt lat="48.54681" lon="-4.74326">
        <ele>10.711792</ele>
        <time>2017-04-23T07:44:11Z</time>
      </trkpt>
      <trkpt lat="48.5469" lon="-4.74319">
        <ele>11.1925049</ele>
        <time>2017-04-23T07:44:18Z</time>
      </trkpt>
      <trkpt lat="48.54696" lon="-4.74305">
        <ele>12.1538086</ele>
        <time>2017-04-23T07:44:25Z</time>
      </trkpt>
      <trkpt lat="48.54697" lon="-4.743">
        <ele>12.6343994</ele>
        <time>2017-04-23T07:44:27Z</time>
      </trkpt>
      <trkpt lat="48.54699" lon="-4.74292">
        <ele>13.5958252</ele>
        <time>2017-04-23T07:44:31Z</time>
      </trkpt>
      <trkpt lat="48.54699" lon="-4.74273">
        <ele>14.5570068</ele>
        <time>2017-04-23T07:44:39Z</time>
      </trkpt>
      <trkpt lat="48.54694" lon="-4.74255">
        <ele>12.6343994</ele>
        <time>2017-04-23T07:44:47Z</time>
      </trkpt>
      <trkpt lat="48.54691" lon="-4.74241">
        <ele>11.6732178</ele>
        <time>2017-04-23T07:44:53Z</time>
      </trkpt>
      <trkpt lat="48.54691" lon="-4.74225">
        <ele>13.5958252</ele>
        <time>2017-04-23T07:45:00Z</time>
      </trkpt>
      <trkpt lat="48.5469" lon="-4.74212">
        <ele>15.0377197</ele>
        <time>2017-04-23T07:45:06Z</time>
      </trkpt>
      <trkpt lat="48.54691" lon="-4.74193">
        <ele>15.9990234</ele>
        <time>2017-04-23T07:45:14Z</time>
      </trkpt>
      <trkpt lat="48.5469" lon="-4.74173">
        <ele>16.9604492</ele>
        <time>2017-04-23T07:45:22Z</time>
      </trkpt>
      <trkpt lat="48.5469" lon="-4.74154">
        <ele>16.9604492</ele>
        <time>2017-04-23T07:45:30Z</time>
      </trkpt>
      <trkpt lat="48.54693" lon="-4.74132">
        <ele>17.4411621</ele>
        <time>2017-04-23T07:45:39Z</time>
      </trkpt>
      <trkpt lat="48.54697" lon="-4.74113">
        <ele>18.4023438</ele>
        <time>2017-04-23T07:45:47Z</time>
      </trkpt>
      <trkpt lat="48.54702" lon="-4.7409">
        <ele>19.3637695</ele>
        <time>2017-04-23T07:45:56Z</time>
      </trkpt>
      <trkpt lat="48.54706" lon="-4.74075">
        <ele>18.8830566</ele>
        <time>2017-04-23T07:46:03Z</time>
      </trkpt>
      <trkpt lat="48.54711" lon="-4.74061">
        <ele>18.4023438</ele>
        <time>2017-04-23T07:46:09Z</time>
      </trkpt>
      <trkpt lat="48.54716" lon="-4.74043">
        <ele>17.9217529</ele>
        <time>2017-04-23T07:46:17Z</time>
      </trkpt>
      <trkpt lat="48.54721" lon="-4.74028">
        <ele>19.3637695</ele>
        <time>2017-04-23T07:46:24Z</time>
      </trkpt>
      <trkpt lat="48.54727" lon="-4.74017">
        <ele>20.3249512</ele>
        <time>2017-04-23T07:46:30Z</time>
      </trkpt>
      <trkpt lat="48.54734" lon="-4.74007">
        <ele>21.286377</ele>
        <time>2017-04-23T07:46:37Z</time>
      </trkpt>
      <trkpt lat="48.54737" lon="-4.74">
        <ele>22.2475586</ele>
        <time>2017-04-23T07:46:42Z</time>
      </trkpt>
      <trkpt lat="48.5474" lon="-4.73991">
        <ele>22.2475586</ele>
        <time>2017-04-23T07:46:48Z</time>
      </trkpt>
      <trkpt lat="48.54742" lon="-4.73982">
        <ele>22.2475586</ele>
        <time>2017-04-23T07:46:52Z</time>
      </trkpt>
      <trkpt lat="48.54747" lon="-4.73965">
        <ele>21.286377</ele>
        <time>2017-04-23T07:47:00Z</time>
      </trkpt>
      <trkpt lat="48.54747" lon="-4.73963">
        <ele>21.7669678</ele>
        <time>2017-04-23T07:47:01Z</time>
      </trkpt>
      <trkpt lat="48.54752" lon="-4.73959">
        <ele>21.286377</ele>
        <time>2017-04-23T07:47:06Z</time>
      </trkpt>
      <trkpt lat="48.54754" lon="-4.7395">
        <ele>20.3249512</ele>
        <time>2017-04-23T07:47:12Z</time>
      </trkpt>
      <trkpt lat="48.54752" lon="-4.73932">
        <ele>19.8443604</ele>
        <time>2017-04-23T07:47:20Z</time>
      </trkpt>
      <trkpt lat="48.54751" lon="-4.73916">
        <ele>19.8443604</ele>
        <time>2017-04-23T07:47:27Z</time>
      </trkpt>
      <trkpt lat="48.54757" lon="-4.73904">
        <ele>19.3637695</ele>
        <time>2017-04-23T07:47:33Z</time>
      </trkpt>
      <trkpt lat="48.5476" lon="-4.73893">
        <ele>19.3637695</ele>
        <time>2017-04-23T07:47:38Z</time>
      </trkpt>
      <trkpt lat="48.54763" lon="-4.73888">
        <ele>19.8443604</ele>
        <time>2017-04-23T07:47:41Z</time>
      </trkpt>
      <trkpt lat="48.54768" lon="-4.73875">
        <ele>17.9217529</ele>
        <time>2017-04-23T07:47:48Z</time>
      </trkpt>
      <trkpt lat="48.54777" lon="-4.73868">
        <ele>17.4411621</ele>
        <time>2017-04-23T07:47:54Z</time>
      </trkpt>
      <trkpt lat="48.54782" lon="-4.73855">
        <ele>17.4411621</ele>
        <time>2017-04-23T07:48:01Z</time>
      </trkpt>
      <trkpt lat="48.54791" lon="-4.7385">
        <ele>18.8830566</ele>
        <time>2017-04-23T07:48:08Z</time>
      </trkpt>
      <trkpt lat="48.54794" lon="-4.7385">
        <ele>18.4023438</ele>
        <time>2017-04-23T07:48:10Z</time>
      </trkpt>
      <trkpt lat="48.54806" lon="-4.73847">
        <ele>19.3637695</ele>
        <time>2017-04-23T07:48:18Z</time>
      </trkpt>
      <trkpt lat="48.54815" lon="-4.7384">
        <ele>19.3637695</ele>
        <time>2017-04-23T07:48:24Z</time>
      </trkpt>
      <trkpt lat="48.54824" lon="-4.73825">
        <ele>18.4023438</ele>
        <time>2017-04-23T07:48:32Z</time>
      </trkpt>
      <trkpt lat="48.54833" lon="-4.73814">
        <ele>17.4411621</ele>
        <time>2017-04-23T07:48:39Z</time>
      </trkpt>
      <trkpt lat="48.54845" lon="-4.73805">
        <ele>16.4797363</ele>
        <time>2017-04-23T07:48:47Z</time>
      </trkpt>
      <trkpt lat="48.54853" lon="-4.73798">
        <ele>15.5184326</ele>
        <time>2017-04-23T07:48:52Z</time>
      </trkpt>
      <trkpt lat="48.5486" lon="-4.73788">
        <ele>15.5184326</ele>
        <time>2017-04-23T07:48:58Z</time>
      </trkpt>
      <trkpt lat="48.54869" lon="-4.73778">
        <ele>16.9604492</ele>
        <time>2017-04-23T07:49:05Z</time>
      </trkpt>
      <trkpt lat="48.54877" lon="-4.73766">
        <ele>17.9217529</ele>
        <time>2017-04-23T07:49:13Z</time>
      </trkpt>
      <trkpt lat="48.54884" lon="-4.73753">
        <ele>18.8830566</ele>
        <time>2017-04-23T07:49:20Z</time>
      </trkpt>
      <trkpt lat="48.54894" lon="-4.73739">
        <ele>19.8443604</ele>
        <time>2017-04-23T07:49:28Z</time>
      </trkpt>
      <trkpt lat="48.54904" lon="-4.73722">
        <ele>20.3249512</ele>
        <time>2017-04-23T07:49:38Z</time>
      </trkpt>
      <trkpt lat="48.54908" lon="-4.73714">
        <ele>21.286377</ele>
        <time>2017-04-23T07:49:42Z</time>
      </trkpt>
      <trkpt lat="48.54917" lon="-4.73703">
        <ele>22.7282715</ele>
        <time>2017-04-23T07:49:49Z</time>
      </trkpt>
      <trkpt lat="48.54924" lon="-4.7369">
        <ele>24.1702881</ele>
        <time>2017-04-23T07:49:57Z</time>
      </trkpt>
      <trkpt lat="48.54927" lon="-4.73679">
        <ele>23.6895752</ele>
        <time>2017-04-23T07:50:03Z</time>
      </trkpt>
      <trkpt lat="48.54928" lon="-4.73668">
        <ele>23.6895752</ele>
        <time>2017-04-23T07:50:08Z</time>
      </trkpt>
      <trkpt lat="48.54933" lon="-4.73648">
        <ele>23.2089844</ele>
        <time>2017-04-23T07:50:17Z</time>
      </trkpt>
      <trkpt lat="48.54935" lon="-4.73631">
        <ele>21.7669678</ele>
        <time>2017-04-23T07:50:24Z</time>
      </trkpt>
      <trkpt lat="48.54937" lon="-4.73615">
        <ele>20.8056641</ele>
        <time>2017-04-23T07:50:31Z</time>
      </trkpt>
      <trkpt lat="48.54943" lon="-4.73595">
        <ele>20.3249512</ele>
        <time>2017-04-23T07:50:41Z</time>
      </trkpt>
      <trkpt lat="48.5495" lon="-4.73588">
        <ele>19.8443604</ele>
        <time>2017-04-23T07:50:47Z</time>
      </trkpt>
      <trkpt lat="48.54951" lon="-4.7358">
        <ele>18.8830566</ele>
        <time>2017-04-23T07:50:53Z</time>
      </trkpt>
      <trkpt lat="48.54948" lon="-4.73573">
        <ele>17.4411621</ele>
        <time>2017-04-23T07:51:00Z</time>
      </trkpt>
      <trkpt lat="48.54949" lon="-4.73563">
        <ele>15.5184326</ele>
        <time>2017-04-23T07:51:06Z</time>
      </trkpt>
      <trkpt lat="48.54956" lon="-4.73557">
        <ele>15.9990234</ele>
        <time>2017-04-23T07:51:12Z</time>
      </trkpt>
      <trkpt lat="48.54961" lon="-4.73552">
        <ele>16.4797363</ele>
        <time>2017-04-23T07:51:16Z</time>
      </trkpt>
      <trkpt lat="48.54965" lon="-4.73544">
        <ele>16.4797363</ele>
        <time>2017-04-23T07:51:21Z</time>
      </trkpt>
      <trkpt lat="48.54966" lon="-4.73543">
        <ele>16.4797363</ele>
        <time>2017-04-23T07:51:22Z</time>
      </trkpt>
      <trkpt lat="48.5497" lon="-4.73528">
        <ele>17.4411621</ele>
        <time>2017-04-23T07:51:29Z</time>
      </trkpt>
      <trkpt lat="48.54975" lon="-4.73516">
        <ele>18.8830566</ele>
        <time>2017-04-23T07:51:35Z</time>
      </trkpt>
      <trkpt lat="48.54984" lon="-4.73502">
        <ele>19.8443604</ele>
        <time>2017-04-23T07:51:43Z</time>
      </trkpt>
      <trkpt lat="48.54994" lon="-4.73484">
        <ele>19.3637695</ele>
        <time>2017-04-23T07:51:53Z</time>
      </trkpt>
      <trkpt lat="48.55001" lon="-4.73473">
        <ele>18.8830566</ele>
        <time>2017-04-23T07:51:59Z</time>
      </trkpt>
      <trkpt lat="48.55007" lon="-4.7346">
        <ele>17.9217529</ele>
        <time>2017-04-23T07:52:06Z</time>
      </trkpt>
      <trkpt lat="48.55016" lon="-4.7345">
        <ele>17.9217529</ele>
        <time>2017-04-23T07:52:13Z</time>
      </trkpt>
      <trkpt lat="48.55027" lon="-4.73442">
        <ele>17.9217529</ele>
        <time>2017-04-23T07:52:20Z</time>
      </trkpt>
      <trkpt lat="48.55041" lon="-4.73434">
        <ele>17.4411621</ele>
        <time>2017-04-23T07:52:29Z</time>
      </trkpt>
      <trkpt lat="48.5505" lon="-4.73435">
        <ele>16.9604492</ele>
        <time>2017-04-23T07:52:35Z</time>
      </trkpt>
      <trkpt lat="48.55055" lon="-4.73427">
        <ele>16.4797363</ele>
        <time>2017-04-23T07:52:42Z</time>
      </trkpt>
      <trkpt lat="48.5506" lon="-4.73426">
        <ele>15.9990234</ele>
        <time>2017-04-23T07:52:46Z</time>
      </trkpt>
      <trkpt lat="48.55071" lon="-4.73429">
        <ele>15.9990234</ele>
        <time>2017-04-23T07:52:54Z</time>
      </trkpt>
      <trkpt lat="48.55076" lon="-4.73422">
        <ele>17.4411621</ele>
        <time>2017-04-23T07:53:00Z</time>
      </trkpt>
      <trkpt lat="48.55078" lon="-4.73419">
        <ele>17.9217529</ele>
        <time>2017-04-23T07:53:02Z</time>
      </trkpt>
      <trkpt lat="48.55087" lon="-4.73415">
        <ele>17.9217529</ele>
        <time>2017-04-23T07:53:09Z</time>
      </trkpt>
      <trkpt lat="48.55097" lon="-4.73418">
        <ele>17.4411621</ele>
        <time>2017-04-23T07:53:15Z</time>
      </trkpt>
      <trkpt lat="48.55108" lon="-4.73418">
        <ele>17.4411621</ele>
        <time>2017-04-23T07:53:22Z</time>
      </trkpt>
      <trkpt lat="48.55121" lon="-4.73409">
        <ele>17.9217529</ele>
        <time>2017-04-23T07:53:31Z</time>
      </trkpt>
      <trkpt lat="48.55134" lon="-4.73404">
        <ele>16.9604492</ele>
        <time>2017-04-23T07:53:39Z</time>
      </trkpt>
      <trkpt lat="48.55142" lon="-4.73392">
        <ele>16.4797363</ele>
        <time>2017-04-23T07:53:46Z</time>
      </trkpt>
      <trkpt lat="48.55144" lon="-4.73378">
        <ele>16.4797363</ele>
        <time>2017-04-23T07:53:52Z</time>
      </trkpt>
      <trkpt lat="48.55146" lon="-4.73367">
        <ele>15.9990234</ele>
        <time>2017-04-23T07:53:57Z</time>
      </trkpt>
      <trkpt lat="48.55154" lon="-4.73359">
        <ele>16.4797363</ele>
        <time>2017-04-23T07:54:03Z</time>
      </trkpt>
      <trkpt lat="48.55166" lon="-4.73351">
        <ele>15.9990234</ele>
        <time>2017-04-23T07:54:11Z</time>
      </trkpt>
      <trkpt lat="48.55174" lon="-4.73349">
        <ele>14.5570068</ele>
        <time>2017-04-23T07:54:17Z</time>
      </trkpt>
      <trkpt lat="48.55181" lon="-4.73344">
        <ele>15.0377197</ele>
        <time>2017-04-23T07:54:23Z</time>
      </trkpt>
      <trkpt lat="48.55189" lon="-4.73336">
        <ele>15.0377197</ele>
        <time>2017-04-23T07:54:29Z</time>
      </trkpt>
      <trkpt lat="48.55201" lon="-4.73329">
        <ele>14.5570068</ele>
        <time>2017-04-23T07:54:37Z</time>
      </trkpt>
      <trkpt lat="48.55215" lon="-4.73328">
        <ele>12.1538086</ele>
        <time>2017-04-23T07:54:45Z</time>
      </trkpt>
      <trkpt lat="48.55223" lon="-4.7333">
        <ele>12.1538086</ele>
        <time>2017-04-23T07:54:50Z</time>
      </trkpt>
      <trkpt lat="48.55233" lon="-4.73334">
        <ele>12.6343994</ele>
        <time>2017-04-23T07:54:57Z</time>
      </trkpt>
      <trkpt lat="48.55242" lon="-4.73342">
        <ele>12.6343994</ele>
        <time>2017-04-23T07:55:03Z</time>
      </trkpt>
      <trkpt lat="48.55251" lon="-4.73347">
        <ele>11.6732178</ele>
        <time>2017-04-23T07:55:09Z</time>
      </trkpt>
      <trkpt lat="48.55264" lon="-4.73344">
        <ele>11.6732178</ele>
        <time>2017-04-23T07:55:17Z</time>
      </trkpt>
      <trkpt lat="48.55275" lon="-4.73334">
        <ele>12.1538086</ele>
        <time>2017-04-23T07:55:25Z</time>
      </trkpt>
      <trkpt lat="48.55287" lon="-4.73321">
        <ele>12.6343994</ele>
        <time>2017-04-23T07:55:34Z</time>
      </trkpt>
      <trkpt lat="48.55297" lon="-4.73311">
        <ele>13.5958252</ele>
        <time>2017-04-23T07:55:41Z</time>
      </trkpt>
      <trkpt lat="48.55307" lon="-4.73302">
        <ele>13.1151123</ele>
        <time>2017-04-23T07:55:48Z</time>
      </trkpt>
      <trkpt lat="48.55314" lon="-4.73292">
        <ele>13.5958252</ele>
        <time>2017-04-23T07:55:54Z</time>
      </trkpt>
      <trkpt lat="48.55324" lon="-4.73281">
        <ele>14.076416</ele>
        <time>2017-04-23T07:56:01Z</time>
      </trkpt>
      <trkpt lat="48.55335" lon="-4.73274">
        <ele>13.5958252</ele>
        <time>2017-04-23T07:56:08Z</time>
      </trkpt>
      <trkpt lat="48.55348" lon="-4.7327">
        <ele>13.5958252</ele>
        <time>2017-04-23T07:56:16Z</time>
      </trkpt>
      <trkpt lat="48.55357" lon="-4.73261">
        <ele>13.1151123</ele>
        <time>2017-04-23T07:56:23Z</time>
      </trkpt>
      <trkpt lat="48.55364" lon="-4.73252">
        <ele>12.1538086</ele>
        <time>2017-04-23T07:56:29Z</time>
      </trkpt>
      <trkpt lat="48.55372" lon="-4.73242">
        <ele>11.1925049</ele>
        <time>2017-04-23T07:56:36Z</time>
      </trkpt>
      <trkpt lat="48.55379" lon="-4.73229">
        <ele>9.7506104</ele>
        <time>2017-04-23T07:56:43Z</time>
      </trkpt>
      <trkpt lat="48.55386" lon="-4.73218">
        <ele>8.7891846</ele>
        <time>2017-04-23T07:56:50Z</time>
      </trkpt>
      <trkpt lat="48.5539" lon="-4.73205">
        <ele>8.7891846</ele>
        <time>2017-04-23T07:56:56Z</time>
      </trkpt>
      <trkpt lat="48.554" lon="-4.73189">
        <ele>9.7506104</ele>
        <time>2017-04-23T07:57:05Z</time>
      </trkpt>
      <trkpt lat="48.55406" lon="-4.73179">
        <ele>9.2698975</ele>
        <time>2017-04-23T07:57:10Z</time>
      </trkpt>
      <trkpt lat="48.55414" lon="-4.7317">
        <ele>9.7506104</ele>
        <time>2017-04-23T07:57:16Z</time>
      </trkpt>
      <trkpt lat="48.55425" lon="-4.73157">
        <ele>9.7506104</ele>
        <time>2017-04-23T07:57:24Z</time>
      </trkpt>
      <trkpt lat="48.55437" lon="-4.73146">
        <ele>10.711792</ele>
        <time>2017-04-23T07:57:32Z</time>
      </trkpt>
      <trkpt lat="48.55451" lon="-4.73135">
        <ele>11.6732178</ele>
        <time>2017-04-23T07:57:41Z</time>
      </trkpt>
      <trkpt lat="48.55471" lon="-4.73122">
        <ele>13.5958252</ele>
        <time>2017-04-23T07:57:53Z</time>
      </trkpt>
      <trkpt lat="48.55483" lon="-4.73116">
        <ele>13.1151123</ele>
        <time>2017-04-23T07:58:01Z</time>
      </trkpt>
      <trkpt lat="48.55499" lon="-4.73107">
        <ele>14.076416</ele>
        <time>2017-04-23T07:58:11Z</time>
      </trkpt>
      <trkpt lat="48.55505" lon="-4.73103">
        <ele>14.076416</ele>
        <time>2017-04-23T07:58:15Z</time>
      </trkpt>
      <trkpt lat="48.55515" lon="-4.73101">
        <ele>13.1151123</ele>
        <time>2017-04-23T07:58:21Z</time>
      </trkpt>
      <trkpt lat="48.55531" lon="-4.7309">
        <ele>13.5958252</ele>
        <time>2017-04-23T07:58:31Z</time>
      </trkpt>
      <trkpt lat="48.55544" lon="-4.73079">
        <ele>13.5958252</ele>
        <time>2017-04-23T07:58:40Z</time>
      </trkpt>
      <trkpt lat="48.55554" lon="-4.73067">
        <ele>13.1151123</ele>
        <time>2017-04-23T07:58:48Z</time>
      </trkpt>
      <trkpt lat="48.55564" lon="-4.7306">
        <ele>13.1151123</ele>
        <time>2017-04-23T07:58:55Z</time>
      </trkpt>
      <trkpt lat="48.55577" lon="-4.73055">
        <ele>13.1151123</ele>
        <time>2017-04-23T07:59:03Z</time>
      </trkpt>
      <trkpt lat="48.55589" lon="-4.73049">
        <ele>13.5958252</ele>
        <time>2017-04-23T07:59:11Z</time>
      </trkpt>
      <trkpt lat="48.55602" lon="-4.73033">
        <ele>13.5958252</ele>
        <time>2017-04-23T07:59:21Z</time>
      </trkpt>
      <trkpt lat="48.55606" lon="-4.73011">
        <ele>14.5570068</ele>
        <time>2017-04-23T07:59:30Z</time>
      </trkpt>
      <trkpt lat="48.5561" lon="-4.72993">
        <ele>15.0377197</ele>
        <time>2017-04-23T07:59:38Z</time>
      </trkpt>
      <trkpt lat="48.55615" lon="-4.72973">
        <ele>15.5184326</ele>
        <time>2017-04-23T07:59:47Z</time>
      </trkpt>
      <trkpt lat="48.55617" lon="-4.72956">
        <ele>15.0377197</ele>
        <time>2017-04-23T07:59:54Z</time>
      </trkpt>
      <trkpt lat="48.55618" lon="-4.7294">
        <ele>15.5184326</ele>
        <time>2017-04-23T08:00:01Z</time>
      </trkpt>
      <trkpt lat="48.55619" lon="-4.72919">
        <ele>15.9990234</ele>
        <time>2017-04-23T08:00:09Z</time>
      </trkpt>
      <trkpt lat="48.55624" lon="-4.72905">
        <ele>15.5184326</ele>
        <time>2017-04-23T08:00:15Z</time>
      </trkpt>
      <trkpt lat="48.55631" lon="-4.72886">
        <ele>15.9990234</ele>
        <time>2017-04-23T08:00:24Z</time>
      </trkpt>
      <trkpt lat="48.55632" lon="-4.72881">
        <ele>15.0377197</ele>
        <time>2017-04-23T08:00:26Z</time>
      </trkpt>
      <trkpt lat="48.55638" lon="-4.72863">
        <ele>15.0377197</ele>
        <time>2017-04-23T08:00:34Z</time>
      </trkpt>
      <trkpt lat="48.55646" lon="-4.72844">
        <ele>15.9990234</ele>
        <time>2017-04-23T08:00:43Z</time>
      </trkpt>
      <trkpt lat="48.55653" lon="-4.72827">
        <ele>16.9604492</ele>
        <time>2017-04-23T08:00:51Z</time>
      </trkpt>
      <trkpt lat="48.5566" lon="-4.72812">
        <ele>14.5570068</ele>
        <time>2017-04-23T08:00:58Z</time>
      </trkpt>
      <trkpt lat="48.55669" lon="-4.72804">
        <ele>14.076416</ele>
        <time>2017-04-23T08:01:04Z</time>
      </trkpt>
      <trkpt lat="48.55676" lon="-4.72794">
        <ele>13.5958252</ele>
        <time>2017-04-23T08:01:10Z</time>
      </trkpt>
      <trkpt lat="48.55677" lon="-4.72792">
        <ele>13.5958252</ele>
        <time>2017-04-23T08:01:11Z</time>
      </trkpt>
      <trkpt lat="48.55681" lon="-4.72782">
        <ele>13.5958252</ele>
        <time>2017-04-23T08:01:16Z</time>
      </trkpt>
      <trkpt lat="48.55682" lon="-4.7278">
        <ele>13.5958252</ele>
        <time>2017-04-23T08:01:17Z</time>
      </trkpt>
      <trkpt lat="48.55689" lon="-4.7276">
        <ele>12.6343994</ele>
        <time>2017-04-23T08:01:26Z</time>
      </trkpt>
      <trkpt lat="48.55696" lon="-4.72741">
        <ele>12.1538086</ele>
        <time>2017-04-23T08:01:35Z</time>
      </trkpt>
      <trkpt lat="48.55697" lon="-4.72733">
        <ele>12.1538086</ele>
        <time>2017-04-23T08:01:38Z</time>
      </trkpt>
      <trkpt lat="48.55704" lon="-4.72717">
        <ele>11.1925049</ele>
        <time>2017-04-23T08:01:46Z</time>
      </trkpt>
      <trkpt lat="48.55709" lon="-4.72696">
        <ele>11.6732178</ele>
        <time>2017-04-23T08:01:55Z</time>
      </trkpt>
      <trkpt lat="48.55715" lon="-4.72678">
        <ele>10.711792</ele>
        <time>2017-04-23T08:02:03Z</time>
      </trkpt>
      <trkpt lat="48.55718" lon="-4.72662">
        <ele>10.2312012</ele>
        <time>2017-04-23T08:02:10Z</time>
      </trkpt>
      <trkpt lat="48.55718" lon="-4.72644">
        <ele>10.711792</ele>
        <time>2017-04-23T08:02:17Z</time>
      </trkpt>
      <trkpt lat="48.55718" lon="-4.72621">
        <ele>11.1925049</ele>
        <time>2017-04-23T08:02:26Z</time>
      </trkpt>
      <trkpt lat="48.5572" lon="-4.72606">
        <ele>10.711792</ele>
        <time>2017-04-23T08:02:32Z</time>
      </trkpt>
      <trkpt lat="48.55726" lon="-4.72591">
        <ele>9.7506104</ele>
        <time>2017-04-23T08:02:39Z</time>
      </trkpt>
      <trkpt lat="48.55731" lon="-4.72576">
        <ele>9.2698975</ele>
        <time>2017-04-23T08:02:46Z</time>
      </trkpt>
      <trkpt lat="48.55735" lon="-4.7256">
        <ele>8.7891846</ele>
        <time>2017-04-23T08:02:53Z</time>
      </trkpt>
      <trkpt lat="48.55736" lon="-4.72559">
        <ele>8.7891846</ele>
        <time>2017-04-23T08:02:54Z</time>
      </trkpt>
      <trkpt lat="48.55737" lon="-4.72547">
        <ele>9.7506104</ele>
        <time>2017-04-23T08:03:01Z</time>
      </trkpt>
      <trkpt lat="48.5574" lon="-4.72537">
        <ele>9.7506104</ele>
        <time>2017-04-23T08:03:08Z</time>
      </trkpt>
      <trkpt lat="48.55741" lon="-4.72535">
        <ele>9.7506104</ele>
        <time>2017-04-23T08:03:10Z</time>
      </trkpt>
      <trkpt lat="48.55742" lon="-4.72523">
        <ele>10.2312012</ele>
        <time>2017-04-23T08:03:16Z</time>
      </trkpt>
      <trkpt lat="48.55742" lon="-4.72521">
        <ele>10.711792</ele>
        <time>2017-04-23T08:03:17Z</time>
      </trkpt>
      <trkpt lat="48.55746" lon="-4.72507">
        <ele>10.711792</ele>
        <time>2017-04-23T08:03:24Z</time>
      </trkpt>
      <trkpt lat="48.55747" lon="-4.72502">
        <ele>10.711792</ele>
        <time>2017-04-23T08:03:26Z</time>
      </trkpt>
      <trkpt lat="48.55742" lon="-4.72495">
        <ele>11.6732178</ele>
        <time>2017-04-23T08:03:31Z</time>
      </trkpt>
      <trkpt lat="48.55742" lon="-4.72494">
        <ele>11.6732178</ele>
        <time>2017-04-23T08:03:32Z</time>
      </trkpt>
      <trkpt lat="48.55741" lon="-4.72485">
        <ele>11.6732178</ele>
        <time>2017-04-23T08:03:37Z</time>
      </trkpt>
      <trkpt lat="48.55743" lon="-4.72471">
        <ele>11.6732178</ele>
        <time>2017-04-23T08:03:44Z</time>
      </trkpt>
      <trkpt lat="48.55748" lon="-4.72459">
        <ele>11.1925049</ele>
        <time>2017-04-23T08:03:50Z</time>
      </trkpt>
      <trkpt lat="48.55753" lon="-4.72442">
        <ele>10.2312012</ele>
        <time>2017-04-23T08:03:58Z</time>
      </trkpt>
      <trkpt lat="48.55753" lon="-4.7243">
        <ele>10.711792</ele>
        <time>2017-04-23T08:04:04Z</time>
      </trkpt>
      <trkpt lat="48.55752" lon="-4.72418">
        <ele>11.1925049</ele>
        <time>2017-04-23T08:04:10Z</time>
      </trkpt>
      <trkpt lat="48.55756" lon="-4.72408">
        <ele>11.6732178</ele>
        <time>2017-04-23T08:04:15Z</time>
      </trkpt>
      <trkpt lat="48.55758" lon="-4.72403">
        <ele>11.1925049</ele>
        <time>2017-04-23T08:04:18Z</time>
      </trkpt>
      <trkpt lat="48.55764" lon="-4.72391">
        <ele>11.6732178</ele>
        <time>2017-04-23T08:04:25Z</time>
      </trkpt>
      <trkpt lat="48.5577" lon="-4.72379">
        <ele>12.1538086</ele>
        <time>2017-04-23T08:04:32Z</time>
      </trkpt>
      <trkpt lat="48.55777" lon="-4.72368">
        <ele>12.6343994</ele>
        <time>2017-04-23T08:04:38Z</time>
      </trkpt>
      <trkpt lat="48.55778" lon="-4.72366">
        <ele>12.6343994</ele>
        <time>2017-04-23T08:04:39Z</time>
      </trkpt>
      <trkpt lat="48.55782" lon="-4.72355">
        <ele>12.6343994</ele>
        <time>2017-04-23T08:04:44Z</time>
      </trkpt>
      <trkpt lat="48.55787" lon="-4.72346">
        <ele>14.5570068</ele>
        <time>2017-04-23T08:04:48Z</time>
      </trkpt>
      <trkpt lat="48.55791" lon="-4.7234">
        <ele>15.0377197</ele>
        <time>2017-04-23T08:04:51Z</time>
      </trkpt>
      <trkpt lat="48.55792" lon="-4.72338">
        <ele>15.9990234</ele>
        <time>2017-04-23T08:04:52Z</time>
      </trkpt>
      <trkpt lat="48.558" lon="-4.72326">
        <ele>16.9604492</ele>
        <time>2017-04-23T08:04:59Z</time>
      </trkpt>
      <trkpt lat="48.55805" lon="-4.7232">
        <ele>17.4411621</ele>
        <time>2017-04-23T08:05:03Z</time>
      </trkpt>
      <trkpt lat="48.55813" lon="-4.72316">
        <ele>16.9604492</ele>
        <time>2017-04-23T08:05:09Z</time>
      </trkpt>
      <trkpt lat="48.55815" lon="-4.72315">
        <ele>16.4797363</ele>
        <time>2017-04-23T08:05:10Z</time>
      </trkpt>
      <trkpt lat="48.55824" lon="-4.72312">
        <ele>16.4797363</ele>
        <time>2017-04-23T08:05:15Z</time>
      </trkpt>
      <trkpt lat="48.55826" lon="-4.72309">
        <ele>15.5184326</ele>
        <time>2017-04-23T08:05:17Z</time>
      </trkpt>
      <trkpt lat="48.55836" lon="-4.72304">
        <ele>14.076416</ele>
        <time>2017-04-23T08:05:24Z</time>
      </trkpt>
      <trkpt lat="48.55837" lon="-4.72304">
        <ele>14.076416</ele>
        <time>2017-04-23T08:05:25Z</time>
      </trkpt>
      <trkpt lat="48.55848" lon="-4.72295">
        <ele>10.711792</ele>
        <time>2017-04-23T08:05:33Z</time>
      </trkpt>
      <trkpt lat="48.55852" lon="-4.72291">
        <ele>11.1925049</ele>
        <time>2017-04-23T08:05:36Z</time>
      </trkpt>
      <trkpt lat="48.55856" lon="-4.72277">
        <ele>12.1538086</ele>
        <time>2017-04-23T08:05:42Z</time>
      </trkpt>
      <trkpt lat="48.55859" lon="-4.72267">
        <ele>12.1538086</ele>
        <time>2017-04-23T08:05:46Z</time>
      </trkpt>
      <trkpt lat="48.55862" lon="-4.72256">
        <ele>13.1151123</ele>
        <time>2017-04-23T08:05:50Z</time>
      </trkpt>
      <trkpt lat="48.5587" lon="-4.72252">
        <ele>13.1151123</ele>
        <time>2017-04-23T08:05:55Z</time>
      </trkpt>
      <trkpt lat="48.55875" lon="-4.72251">
        <ele>12.6343994</ele>
        <time>2017-04-23T08:05:58Z</time>
      </trkpt>
      <trkpt lat="48.55892" lon="-4.72242">
        <ele>11.6732178</ele>
        <time>2017-04-23T08:06:09Z</time>
      </trkpt>
      <trkpt lat="48.55902" lon="-4.72239">
        <ele>11.1925049</ele>
        <time>2017-04-23T08:06:16Z</time>
      </trkpt>
      <trkpt lat="48.55904" lon="-4.72236">
        <ele>10.711792</ele>
        <time>2017-04-23T08:06:18Z</time>
      </trkpt>
      <trkpt lat="48.55905" lon="-4.72219">
        <ele>11.1925049</ele>
        <time>2017-04-23T08:06:24Z</time>
      </trkpt>
      <trkpt lat="48.55899" lon="-4.72206">
        <ele>10.2312012</ele>
        <time>2017-04-23T08:06:29Z</time>
      </trkpt>
      <trkpt lat="48.55893" lon="-4.72198">
        <ele>8.7891846</ele>
        <time>2017-04-23T08:06:35Z</time>
      </trkpt>
      <trkpt lat="48.55891" lon="-4.72195">
        <ele>8.7891846</ele>
        <time>2017-04-23T08:06:37Z</time>
      </trkpt>
      <trkpt lat="48.55886" lon="-4.72181">
        <ele>9.2698975</ele>
        <time>2017-04-23T08:06:43Z</time>
      </trkpt>
      <trkpt lat="48.55881" lon="-4.72165">
        <ele>10.2312012</ele>
        <time>2017-04-23T08:06:50Z</time>
      </trkpt>
      <trkpt lat="48.55876" lon="-4.72155">
        <ele>9.7506104</ele>
        <time>2017-04-23T08:06:55Z</time>
      </trkpt>
      <trkpt lat="48.55872" lon="-4.72146">
        <ele>10.2312012</ele>
        <time>2017-04-23T08:07:00Z</time>
      </trkpt>
      <trkpt lat="48.55868" lon="-4.72137">
        <ele>10.711792</ele>
        <time>2017-04-23T08:07:04Z</time>
      </trkpt>
      <trkpt lat="48.55863" lon="-4.72127">
        <ele>11.6732178</ele>
        <time>2017-04-23T08:07:09Z</time>
      </trkpt>
      <trkpt lat="48.55858" lon="-4.7212">
        <ele>12.1538086</ele>
        <time>2017-04-23T08:07:14Z</time>
      </trkpt>
      <trkpt lat="48.55857" lon="-4.72118">
        <ele>12.1538086</ele>
        <time>2017-04-23T08:07:15Z</time>
      </trkpt>
      <trkpt lat="48.55855" lon="-4.7211">
        <ele>13.1151123</ele>
        <time>2017-04-23T08:07:19Z</time>
      </trkpt>
      <trkpt lat="48.55849" lon="-4.7209">
        <ele>13.5958252</ele>
        <time>2017-04-23T08:07:29Z</time>
      </trkpt>
      <trkpt lat="48.5585" lon="-4.72084">
        <ele>13.5958252</ele>
        <time>2017-04-23T08:07:32Z</time>
      </trkpt>
      <trkpt lat="48.55847" lon="-4.72079">
        <ele>12.6343994</ele>
        <time>2017-04-23T08:07:35Z</time>
      </trkpt>
      <trkpt lat="48.55841" lon="-4.72069">
        <ele>11.6732178</ele>
        <time>2017-04-23T08:07:42Z</time>
      </trkpt>
      <trkpt lat="48.55839" lon="-4.72063">
        <ele>11.6732178</ele>
        <time>2017-04-23T08:09:11Z</time>
      </trkpt>
      <trkpt lat="48.55836" lon="-4.72054">
        <ele>12.1538086</ele>
        <time>2017-04-23T08:10:06Z</time>
      </trkpt>
      <trkpt lat="48.55833" lon="-4.72048">
        <ele>12.1538086</ele>
        <time>2017-04-23T08:10:12Z</time>
      </trkpt>
      <trkpt lat="48.55828" lon="-4.72039">
        <ele>13.1151123</ele>
        <time>2017-04-23T08:10:19Z</time>
      </trkpt>
      <trkpt lat="48.55824" lon="-4.72027">
        <ele>13.5958252</ele>
        <time>2017-04-23T08:10:25Z</time>
      </trkpt>
      <trkpt lat="48.55819" lon="-4.72016">
        <ele>12.6343994</ele>
        <time>2017-04-23T08:10:31Z</time>
      </trkpt>
      <trkpt lat="48.55813" lon="-4.72008">
        <ele>12.1538086</ele>
        <time>2017-04-23T08:10:36Z</time>
      </trkpt>
      <trkpt lat="48.55809" lon="-4.72002">
        <ele>12.1538086</ele>
        <time>2017-04-23T08:10:40Z</time>
      </trkpt>
      <trkpt lat="48.55809" lon="-4.71994">
        <ele>11.1925049</ele>
        <time>2017-04-23T08:10:44Z</time>
      </trkpt>
      <trkpt lat="48.55816" lon="-4.71973">
        <ele>10.711792</ele>
        <time>2017-04-23T08:10:53Z</time>
      </trkpt>
      <trkpt lat="48.5582" lon="-4.71958">
        <ele>13.1151123</ele>
        <time>2017-04-23T08:10:59Z</time>
      </trkpt>
      <trkpt lat="48.55821" lon="-4.71944">
        <ele>13.5958252</ele>
        <time>2017-04-23T08:11:04Z</time>
      </trkpt>
      <trkpt lat="48.55822" lon="-4.71939">
        <ele>13.5958252</ele>
        <time>2017-04-23T08:11:06Z</time>
      </trkpt>
      <trkpt lat="48.55832" lon="-4.71931">
        <ele>12.6343994</ele>
        <time>2017-04-23T08:11:13Z</time>
      </trkpt>
      <trkpt lat="48.55836" lon="-4.71919">
        <ele>12.1538086</ele>
        <time>2017-04-23T08:11:19Z</time>
      </trkpt>
      <trkpt lat="48.5584" lon="-4.71902">
        <ele>12.6343994</ele>
        <time>2017-04-23T08:11:27Z</time>
      </trkpt>
      <trkpt lat="48.55845" lon="-4.71886">
        <ele>12.1538086</ele>
        <time>2017-04-23T08:11:35Z</time>
      </trkpt>
      <trkpt lat="48.5585" lon="-4.71868">
        <ele>11.1925049</ele>
        <time>2017-04-23T08:11:43Z</time>
      </trkpt>
      <trkpt lat="48.55855" lon="-4.71851">
        <ele>8.3085938</ele>
        <time>2017-04-23T08:11:51Z</time>
      </trkpt>
      <trkpt lat="48.5586" lon="-4.71836">
        <ele>5.9052734</ele>
        <time>2017-04-23T08:11:58Z</time>
      </trkpt>
      <trkpt lat="48.55867" lon="-4.71818">
        <ele>4.4632568</ele>
        <time>2017-04-23T08:12:07Z</time>
      </trkpt>
      <trkpt lat="48.55869" lon="-4.71816">
        <ele>3.982666</ele>
        <time>2017-04-23T08:12:08Z</time>
      </trkpt>
      <trkpt lat="48.55874" lon="-4.71806">
        <ele>2.5406494</ele>
        <time>2017-04-23T08:12:14Z</time>
      </trkpt>
      <trkpt lat="48.55877" lon="-4.71791">
        <ele>2.5406494</ele>
        <time>2017-04-23T08:12:20Z</time>
      </trkpt>
      <trkpt lat="48.55873" lon="-4.71773">
        <ele>3.0212402</ele>
        <time>2017-04-23T08:12:28Z</time>
      </trkpt>
      <trkpt lat="48.55869" lon="-4.7175">
        <ele>3.982666</ele>
        <time>2017-04-23T08:12:38Z</time>
      </trkpt>
      <trkpt lat="48.55869" lon="-4.71734">
        <ele>5.4245605</ele>
        <time>2017-04-23T08:12:45Z</time>
      </trkpt>
      <trkpt lat="48.55875" lon="-4.71722">
        <ele>3.0212402</ele>
        <time>2017-04-23T08:12:52Z</time>
      </trkpt>
      <trkpt lat="48.5588" lon="-4.7171">
        <ele>2.5406494</ele>
        <time>2017-04-23T08:12:58Z</time>
      </trkpt>
      <trkpt lat="48.55885" lon="-4.71697">
        <ele>3.5019531</ele>
        <time>2017-04-23T08:13:05Z</time>
      </trkpt>
      <trkpt lat="48.55894" lon="-4.71684">
        <ele>4.4632568</ele>
        <time>2017-04-23T08:13:14Z</time>
      </trkpt>
      <trkpt lat="48.55905" lon="-4.71671">
        <ele>5.4245605</ele>
        <time>2017-04-23T08:13:23Z</time>
      </trkpt>
      <trkpt lat="48.55909" lon="-4.71659">
        <ele>4.9438477</ele>
        <time>2017-04-23T08:13:29Z</time>
      </trkpt>
      <trkpt lat="48.5591" lon="-4.71657">
        <ele>4.4632568</ele>
        <time>2017-04-23T08:13:30Z</time>
      </trkpt>
      <trkpt lat="48.55907" lon="-4.71642">
        <ele>3.982666</ele>
        <time>2017-04-23T08:13:36Z</time>
      </trkpt>
      <trkpt lat="48.55905" lon="-4.71637">
        <ele>3.982666</ele>
        <time>2017-04-23T08:13:39Z</time>
      </trkpt>
      <trkpt lat="48.559" lon="-4.71635">
        <ele>3.982666</ele>
        <time>2017-04-23T08:13:43Z</time>
      </trkpt>
      <trkpt lat="48.55893" lon="-4.71634">
        <ele>4.4632568</ele>
        <time>2017-04-23T08:13:49Z</time>
      </trkpt>
      <trkpt lat="48.55889" lon="-4.71635">
        <ele>4.4632568</ele>
        <time>2017-04-23T08:13:53Z</time>
      </trkpt>
      <trkpt lat="48.5588" lon="-4.71642">
        <ele>5.4245605</ele>
        <time>2017-04-23T08:14:01Z</time>
      </trkpt>
      <trkpt lat="48.55876" lon="-4.71652">
        <ele>6.3858643</ele>
        <time>2017-04-23T08:14:06Z</time>
      </trkpt>
      <trkpt lat="48.55873" lon="-4.71664">
        <ele>6.3858643</ele>
        <time>2017-04-23T08:14:12Z</time>
      </trkpt>
      <trkpt lat="48.55872" lon="-4.71676">
        <ele>7.347168</ele>
        <time>2017-04-23T08:14:18Z</time>
      </trkpt>
      <trkpt lat="48.55872" lon="-4.71699">
        <ele>8.3085938</ele>
        <time>2017-04-23T08:14:28Z</time>
      </trkpt>
      <trkpt lat="48.55868" lon="-4.71717">
        <ele>9.2698975</ele>
        <time>2017-04-23T08:14:36Z</time>
      </trkpt>
      <trkpt lat="48.55863" lon="-4.71725">
        <ele>9.2698975</ele>
        <time>2017-04-23T08:14:41Z</time>
      </trkpt>
      <trkpt lat="48.55855" lon="-4.71729">
        <ele>8.7891846</ele>
        <time>2017-04-23T08:14:47Z</time>
      </trkpt>
      <trkpt lat="48.55844" lon="-4.71732">
        <ele>8.7891846</ele>
        <time>2017-04-23T08:14:54Z</time>
      </trkpt>
      <trkpt lat="48.55833" lon="-4.71737">
        <ele>9.7506104</ele>
        <time>2017-04-23T08:15:01Z</time>
      </trkpt>
      <trkpt lat="48.55821" lon="-4.7174">
        <ele>12.1538086</ele>
        <time>2017-04-23T08:15:09Z</time>
      </trkpt>
      <trkpt lat="48.55809" lon="-4.71746">
        <ele>13.5958252</ele>
        <time>2017-04-23T08:15:17Z</time>
      </trkpt>
      <trkpt lat="48.558" lon="-4.71753">
        <ele>13.1151123</ele>
        <time>2017-04-23T08:15:23Z</time>
      </trkpt>
      <trkpt lat="48.55786" lon="-4.71759">
        <ele>11.1925049</ele>
        <time>2017-04-23T08:15:31Z</time>
      </trkpt>
      <trkpt lat="48.55776" lon="-4.71761">
        <ele>9.7506104</ele>
        <time>2017-04-23T08:15:37Z</time>
      </trkpt>
      <trkpt lat="48.55773" lon="-4.71761">
        <ele>9.7506104</ele>
        <time>2017-04-23T08:15:39Z</time>
      </trkpt>
      <trkpt lat="48.55761" lon="-4.7177">
        <ele>10.711792</ele>
        <time>2017-04-23T08:15:48Z</time>
      </trkpt>
      <trkpt lat="48.55751" lon="-4.71778">
        <ele>11.6732178</ele>
        <time>2017-04-23T08:15:55Z</time>
      </trkpt>
      <trkpt lat="48.55741" lon="-4.71785">
        <ele>12.6343994</ele>
        <time>2017-04-23T08:16:02Z</time>
      </trkpt>
      <trkpt lat="48.55731" lon="-4.71782">
        <ele>11.6732178</ele>
        <time>2017-04-23T08:16:08Z</time>
      </trkpt>
      <trkpt lat="48.55721" lon="-4.7179">
        <ele>8.3085938</ele>
        <time>2017-04-23T08:16:15Z</time>
      </trkpt>
      <trkpt lat="48.55715" lon="-4.71794">
        <ele>6.8664551</ele>
        <time>2017-04-23T08:16:22Z</time>
      </trkpt>
      <trkpt lat="48.5571" lon="-4.71797">
        <ele>5.9052734</ele>
        <time>2017-04-23T08:16:28Z</time>
      </trkpt>
      <trkpt lat="48.55707" lon="-4.71799">
        <ele>5.4245605</ele>
        <time>2017-04-23T08:16:33Z</time>
      </trkpt>
      <trkpt lat="48.55703" lon="-4.71803">
        <ele>3.982666</ele>
        <time>2017-04-23T08:16:41Z</time>
      </trkpt>
      <trkpt lat="48.55699" lon="-4.71801">
        <ele>2.5406494</ele>
        <time>2017-04-23T08:16:48Z</time>
      </trkpt>
      <trkpt lat="48.55699" lon="-4.71798">
        <ele>2.0600586</ele>
        <time>2017-04-23T08:16:53Z</time>
      </trkpt>
      <trkpt lat="48.557" lon="-4.71797">
        <ele>2.0600586</ele>
        <time>2017-04-23T08:16:57Z</time>
      </trkpt>
      <trkpt lat="48.557" lon="-4.71797">
        <ele>3.0212402</ele>
        <time>2017-04-23T08:17:04Z</time>
      </trkpt>
      <trkpt lat="48.55697" lon="-4.71795">
        <ele>3.0212402</ele>
        <time>2017-04-23T08:17:06Z</time>
      </trkpt>
      <trkpt lat="48.55689" lon="-4.71795">
        <ele>3.5019531</ele>
        <time>2017-04-23T08:17:11Z</time>
      </trkpt>
      <trkpt lat="48.55682" lon="-4.71793">
        <ele>3.5019531</ele>
        <time>2017-04-23T08:17:20Z</time>
      </trkpt>
      <trkpt lat="48.55681" lon="-4.71793">
        <ele>3.982666</ele>
        <time>2017-04-23T08:17:27Z</time>
      </trkpt>
      <trkpt lat="48.55681" lon="-4.71791">
        <ele>4.4632568</ele>
        <time>2017-04-23T08:17:45Z</time>
      </trkpt>
      <trkpt lat="48.55681" lon="-4.71791">
        <ele>3.982666</ele>
        <time>2017-04-23T08:17:54Z</time>
      </trkpt>
      <trkpt lat="48.55682" lon="-4.71791">
        <ele>4.9438477</ele>
        <time>2017-04-23T08:18:03Z</time>
      </trkpt>
      <trkpt lat="48.55678" lon="-4.71789">
        <ele>4.4632568</ele>
        <time>2017-04-23T08:18:08Z</time>
      </trkpt>
      <trkpt lat="48.55672" lon="-4.71788">
        <ele>4.9438477</ele>
        <time>2017-04-23T08:18:12Z</time>
      </trkpt>
      <trkpt lat="48.55662" lon="-4.71783">
        <ele>5.4245605</ele>
        <time>2017-04-23T08:18:19Z</time>
      </trkpt>
      <trkpt lat="48.55652" lon="-4.71779">
        <ele>5.9052734</ele>
        <time>2017-04-23T08:18:25Z</time>
      </trkpt>
      <trkpt lat="48.5564" lon="-4.7177">
        <ele>5.4245605</ele>
        <time>2017-04-23T08:18:33Z</time>
      </trkpt>
      <trkpt lat="48.55632" lon="-4.7176">
        <ele>4.4632568</ele>
        <time>2017-04-23T08:18:39Z</time>
      </trkpt>
      <trkpt lat="48.55624" lon="-4.71756">
        <ele>4.9438477</ele>
        <time>2017-04-23T08:18:44Z</time>
      </trkpt>
      <trkpt lat="48.55621" lon="-4.71754">
        <ele>4.4632568</ele>
        <time>2017-04-23T08:18:46Z</time>
      </trkpt>
      <trkpt lat="48.55611" lon="-4.71741">
        <ele>4.4632568</ele>
        <time>2017-04-23T08:18:54Z</time>
      </trkpt>
      <trkpt lat="48.55605" lon="-4.7173">
        <ele>4.4632568</ele>
        <time>2017-04-23T08:19:00Z</time>
      </trkpt>
      <trkpt lat="48.55601" lon="-4.71724">
        <ele>4.9438477</ele>
        <time>2017-04-23T08:19:05Z</time>
      </trkpt>
      <trkpt lat="48.55593" lon="-4.7171">
        <ele>3.982666</ele>
        <time>2017-04-23T08:19:12Z</time>
      </trkpt>
      <trkpt lat="48.55588" lon="-4.71701">
        <ele>2.0600586</ele>
        <time>2017-04-23T08:19:18Z</time>
      </trkpt>
      <trkpt lat="48.55578" lon="-4.71681">
        <ele>1.5793457</ele>
        <time>2017-04-23T08:19:27Z</time>
      </trkpt>
      <trkpt lat="48.55558" lon="-4.7157">
        <ele>2.5406494</ele>
        <time>2017-04-23T08:21:04Z</time>
      </trkpt>
      <trkpt lat="48.55558" lon="-4.7156">
        <ele>2.5406494</ele>
        <time>2017-04-23T08:21:07Z</time>
      </trkpt>
      <trkpt lat="48.55554" lon="-4.71548">
        <ele>2.0600586</ele>
        <time>2017-04-23T08:21:10Z</time>
      </trkpt>
      <trkpt lat="48.55552" lon="-4.71542">
        <ele>2.5406494</ele>
        <time>2017-04-23T08:21:12Z</time>
      </trkpt>
      <trkpt lat="48.55549" lon="-4.71533">
        <ele>3.5019531</ele>
        <time>2017-04-23T08:21:16Z</time>
      </trkpt>
      <trkpt lat="48.55542" lon="-4.7152">
        <ele>3.0212402</ele>
        <time>2017-04-23T08:21:23Z</time>
      </trkpt>
      <trkpt lat="48.55534" lon="-4.71513">
        <ele>1.5793457</ele>
        <time>2017-04-23T08:21:28Z</time>
      </trkpt>
      <trkpt lat="48.55525" lon="-4.71501">
        <ele>0.618042</ele>
        <time>2017-04-23T08:21:35Z</time>
      </trkpt>
      <trkpt lat="48.5552" lon="-4.71487">
        <ele>2.0600586</ele>
        <time>2017-04-23T08:21:40Z</time>
      </trkpt>
      <trkpt lat="48.55516" lon="-4.71471">
        <ele>2.5406494</ele>
        <time>2017-04-23T08:21:45Z</time>
      </trkpt>
      <trkpt lat="48.55513" lon="-4.71461">
        <ele>3.0212402</ele>
        <time>2017-04-23T08:21:49Z</time>
      </trkpt>
      <trkpt lat="48.55508" lon="-4.71444">
        <ele>6.3858643</ele>
        <time>2017-04-23T08:21:55Z</time>
      </trkpt>
      <trkpt lat="48.55502" lon="-4.71424">
        <ele>8.7891846</ele>
        <time>2017-04-23T08:22:02Z</time>
      </trkpt>
      <trkpt lat="48.55497" lon="-4.71408">
        <ele>10.711792</ele>
        <time>2017-04-23T08:22:08Z</time>
      </trkpt>
      <trkpt lat="48.55491" lon="-4.71395">
        <ele>11.6732178</ele>
        <time>2017-04-23T08:22:13Z</time>
      </trkpt>
      <trkpt lat="48.55487" lon="-4.71384">
        <ele>11.1925049</ele>
        <time>2017-04-23T08:22:17Z</time>
      </trkpt>
      <trkpt lat="48.55483" lon="-4.71374">
        <ele>8.7891846</ele>
        <time>2017-04-23T08:22:21Z</time>
      </trkpt>
      <trkpt lat="48.55475" lon="-4.71365">
        <ele>7.347168</ele>
        <time>2017-04-23T08:22:27Z</time>
      </trkpt>
      <trkpt lat="48.55466" lon="-4.7136">
        <ele>6.3858643</ele>
        <time>2017-04-23T08:22:32Z</time>
      </trkpt>
      <trkpt lat="48.55459" lon="-4.71357">
        <ele>5.4245605</ele>
        <time>2017-04-23T08:22:36Z</time>
      </trkpt>
      <trkpt lat="48.55446" lon="-4.71349">
        <ele>3.982666</ele>
        <time>2017-04-23T08:22:44Z</time>
      </trkpt>
      <trkpt lat="48.55431" lon="-4.71338">
        <ele>4.4632568</ele>
        <time>2017-04-23T08:22:53Z</time>
      </trkpt>
      <trkpt lat="48.55419" lon="-4.71331">
        <ele>4.4632568</ele>
        <time>2017-04-23T08:23:00Z</time>
      </trkpt>
      <trkpt lat="48.55407" lon="-4.71327">
        <ele>4.4632568</ele>
        <time>2017-04-23T08:23:07Z</time>
      </trkpt>
      <trkpt lat="48.55397" lon="-4.71323">
        <ele>3.982666</ele>
        <time>2017-04-23T08:23:12Z</time>
      </trkpt>
      <trkpt lat="48.55397" lon="-4.71317">
        <ele>2.5406494</ele>
        <time>2017-04-23T08:23:18Z</time>
      </trkpt>
      <trkpt lat="48.55395" lon="-4.71316">
        <ele>2.0600586</ele>
        <time>2017-04-23T08:23:28Z</time>
      </trkpt>
      <trkpt lat="48.55396" lon="-4.71316">
        <ele>3.5019531</ele>
        <time>2017-04-23T08:23:38Z</time>
      </trkpt>
      <trkpt lat="48.55395" lon="-4.71315">
        <ele>3.982666</ele>
        <time>2017-04-23T08:23:52Z</time>
      </trkpt>
      <trkpt lat="48.55389" lon="-4.71314">
        <ele>4.4632568</ele>
        <time>2017-04-23T08:23:58Z</time>
      </trkpt>
      <trkpt lat="48.55384" lon="-4.71311">
        <ele>4.9438477</ele>
        <time>2017-04-23T08:24:03Z</time>
      </trkpt>
      <trkpt lat="48.55377" lon="-4.71308">
        <ele>4.9438477</ele>
        <time>2017-04-23T08:24:09Z</time>
      </trkpt>
      <trkpt lat="48.55369" lon="-4.71304">
        <ele>6.3858643</ele>
        <time>2017-04-23T08:24:16Z</time>
      </trkpt>
      <trkpt lat="48.55358" lon="-4.71293">
        <ele>4.4632568</ele>
        <time>2017-04-23T08:24:51Z</time>
      </trkpt>
      <trkpt lat="48.55346" lon="-4.71273">
        <ele>3.5019531</ele>
        <time>2017-04-23T08:24:58Z</time>
      </trkpt>
      <trkpt lat="48.55358" lon="-4.71273">
        <ele>5.4245605</ele>
        <time>2017-04-23T08:29:50Z</time>
      </trkpt>
      <trkpt lat="48.55362" lon="-4.71279">
        <ele>4.4632568</ele>
        <time>2017-04-23T08:29:57Z</time>
      </trkpt>
      <trkpt lat="48.55364" lon="-4.71285">
        <ele>4.4632568</ele>
        <time>2017-04-23T08:30:05Z</time>
      </trkpt>
      <trkpt lat="48.55369" lon="-4.71289">
        <ele>3.982666</ele>
        <time>2017-04-23T08:30:38Z</time>
      </trkpt>
      <trkpt lat="48.55371" lon="-4.71292">
        <ele>3.5019531</ele>
        <time>2017-04-23T08:30:44Z</time>
      </trkpt>
      <trkpt lat="48.55375" lon="-4.71294">
        <ele>3.0212402</ele>
        <time>2017-04-23T08:30:50Z</time>
      </trkpt>
      <trkpt lat="48.55381" lon="-4.71298">
        <ele>3.5019531</ele>
        <time>2017-04-23T08:30:56Z</time>
      </trkpt>
      <trkpt lat="48.55394" lon="-4.71305">
        <ele>3.5019531</ele>
        <time>2017-04-23T08:31:06Z</time>
      </trkpt>
      <trkpt lat="48.55404" lon="-4.71311">
        <ele>3.5019531</ele>
        <time>2017-04-23T08:31:14Z</time>
      </trkpt>
      <trkpt lat="48.55415" lon="-4.71318">
        <ele>3.0212402</ele>
        <time>2017-04-23T08:31:23Z</time>
      </trkpt>
      <trkpt lat="48.55425" lon="-4.71324">
        <ele>3.0212402</ele>
        <time>2017-04-23T08:31:31Z</time>
      </trkpt>
      <trkpt lat="48.55433" lon="-4.71329">
        <ele>3.0212402</ele>
        <time>2017-04-23T08:31:37Z</time>
      </trkpt>
      <trkpt lat="48.55441" lon="-4.71335">
        <ele>3.5019531</ele>
        <time>2017-04-23T08:31:44Z</time>
      </trkpt>
      <trkpt lat="48.5545" lon="-4.7134">
        <ele>3.5019531</ele>
        <time>2017-04-23T08:31:51Z</time>
      </trkpt>
      <trkpt lat="48.55461" lon="-4.71347">
        <ele>2.0600586</ele>
        <time>2017-04-23T08:32:00Z</time>
      </trkpt>
      <trkpt lat="48.55471" lon="-4.71353">
        <ele>2.0600586</ele>
        <time>2017-04-23T08:32:07Z</time>
      </trkpt>
      <trkpt lat="48.55478" lon="-4.71358">
        <ele>1.5793457</ele>
        <time>2017-04-23T08:32:12Z</time>
      </trkpt>
      <trkpt lat="48.55484" lon="-4.71366">
        <ele>0.1374512</ele>
        <time>2017-04-23T08:32:18Z</time>
      </trkpt>
      <trkpt lat="48.55492" lon="-4.71382">
        <ele>-0.3433838</ele>
        <time>2017-04-23T08:32:27Z</time>
      </trkpt>
      <trkpt lat="48.55494" lon="-4.71386">
        <ele>-0.3433838</ele>
        <time>2017-04-23T08:32:29Z</time>
      </trkpt>
      <trkpt lat="48.55495" lon="-4.71391">
        <ele>0.1374512</ele>
        <time>2017-04-23T08:32:32Z</time>
      </trkpt>
      <trkpt lat="48.555" lon="-4.71406">
        <ele>-0.8240967</ele>
        <time>2017-04-23T08:32:39Z</time>
      </trkpt>
      <trkpt lat="48.55503" lon="-4.71417">
        <ele>-1.3046875</ele>
        <time>2017-04-23T08:32:44Z</time>
      </trkpt>
      <trkpt lat="48.55507" lon="-4.71426">
        <ele>-2.2659912</ele>
        <time>2017-04-23T08:32:49Z</time>
      </trkpt>
      <trkpt lat="48.55511" lon="-4.71436">
        <ele>-3.2272949</ele>
        <time>2017-04-23T08:32:54Z</time>
      </trkpt>
      <trkpt lat="48.55512" lon="-4.71445">
        <ele>-3.7078857</ele>
        <time>2017-04-23T08:32:58Z</time>
      </trkpt>
      <trkpt lat="48.55515" lon="-4.71457">
        <ele>-4.6693115</ele>
        <time>2017-04-23T08:33:04Z</time>
      </trkpt>
      <trkpt lat="48.55517" lon="-4.71471">
        <ele>-5.6304932</ele>
        <time>2017-04-23T08:33:11Z</time>
      </trkpt>
      <trkpt lat="48.55518" lon="-4.71479">
        <ele>-5.6304932</ele>
        <time>2017-04-23T08:33:15Z</time>
      </trkpt>
      <trkpt lat="48.5552" lon="-4.71489">
        <ele>-6.1112061</ele>
        <time>2017-04-23T08:33:20Z</time>
      </trkpt>
      <trkpt lat="48.55522" lon="-4.71498">
        <ele>-5.6304932</ele>
        <time>2017-04-23T08:33:25Z</time>
      </trkpt>
      <trkpt lat="48.55525" lon="-4.71508">
        <ele>-5.1499023</ele>
        <time>2017-04-23T08:33:30Z</time>
      </trkpt>
      <trkpt lat="48.55528" lon="-4.71511">
        <ele>-4.6693115</ele>
        <time>2017-04-23T08:33:33Z</time>
      </trkpt>
      <trkpt lat="48.55531" lon="-4.71515">
        <ele>-4.6693115</ele>
        <time>2017-04-23T08:33:36Z</time>
      </trkpt>
      <trkpt lat="48.55541" lon="-4.71523">
        <ele>-5.6304932</ele>
        <time>2017-04-23T08:33:43Z</time>
      </trkpt>
      <trkpt lat="48.55549" lon="-4.71532">
        <ele>-5.1499023</ele>
        <time>2017-04-23T08:33:50Z</time>
      </trkpt>
      <trkpt lat="48.55556" lon="-4.71542">
        <ele>-4.1885986</ele>
        <time>2017-04-23T08:33:56Z</time>
      </trkpt>
      <trkpt lat="48.55559" lon="-4.71557">
        <ele>-2.7467041</ele>
        <time>2017-04-23T08:34:03Z</time>
      </trkpt>
      <trkpt lat="48.55562" lon="-4.71567">
        <ele>-3.7078857</ele>
        <time>2017-04-23T08:34:08Z</time>
      </trkpt>
      <trkpt lat="48.55571" lon="-4.71589">
        <ele>-2.2659912</ele>
        <time>2017-04-23T08:34:18Z</time>
      </trkpt>
      <trkpt lat="48.55573" lon="-4.71594">
        <ele>-2.2659912</ele>
        <time>2017-04-23T08:34:21Z</time>
      </trkpt>
      <trkpt lat="48.55576" lon="-4.71604">
        <ele>-2.2659912</ele>
        <time>2017-04-23T08:34:25Z</time>
      </trkpt>
      <trkpt lat="48.55582" lon="-4.71616">
        <ele>-1.7852783</ele>
        <time>2017-04-23T08:34:31Z</time>
      </trkpt>
      <trkpt lat="48.55587" lon="-4.7163">
        <ele>-1.7852783</ele>
        <time>2017-04-23T08:34:38Z</time>
      </trkpt>
      <trkpt lat="48.55593" lon="-4.71641">
        <ele>-1.3046875</ele>
        <time>2017-04-23T08:34:44Z</time>
      </trkpt>
      <trkpt lat="48.556" lon="-4.71656">
        <ele>-1.7852783</ele>
        <time>2017-04-23T08:34:52Z</time>
      </trkpt>
      <trkpt lat="48.55606" lon="-4.71668">
        <ele>-1.7852783</ele>
        <time>2017-04-23T08:34:59Z</time>
      </trkpt>
      <trkpt lat="48.5561" lon="-4.71678">
        <ele>-2.2659912</ele>
        <time>2017-04-23T08:35:05Z</time>
      </trkpt>
      <trkpt lat="48.55617" lon="-4.7169">
        <ele>-1.7852783</ele>
        <time>2017-04-23T08:35:12Z</time>
      </trkpt>
      <trkpt lat="48.55624" lon="-4.71703">
        <ele>-1.3046875</ele>
        <time>2017-04-23T08:35:19Z</time>
      </trkpt>
      <trkpt lat="48.55631" lon="-4.71714">
        <ele>-1.7852783</ele>
        <time>2017-04-23T08:35:26Z</time>
      </trkpt>
      <trkpt lat="48.5564" lon="-4.71726">
        <ele>-1.3046875</ele>
        <time>2017-04-23T08:35:34Z</time>
      </trkpt>
      <trkpt lat="48.5565" lon="-4.71738">
        <ele>-0.8240967</ele>
        <time>2017-04-23T08:35:42Z</time>
      </trkpt>
      <trkpt lat="48.55662" lon="-4.71749">
        <ele>-0.3433838</ele>
        <time>2017-04-23T08:35:51Z</time>
      </trkpt>
      <trkpt lat="48.55668" lon="-4.71758">
        <ele>0.618042</ele>
        <time>2017-04-23T08:35:57Z</time>
      </trkpt>
      <trkpt lat="48.55674" lon="-4.71764">
        <ele>0.618042</ele>
        <time>2017-04-23T08:36:02Z</time>
      </trkpt>
      <trkpt lat="48.55679" lon="-4.71769">
        <ele>0.618042</ele>
        <time>2017-04-23T08:36:06Z</time>
      </trkpt>
      <trkpt lat="48.55691" lon="-4.71783">
        <ele>2.0600586</ele>
        <time>2017-04-23T08:36:16Z</time>
      </trkpt>
      <trkpt lat="48.55699" lon="-4.71793">
        <ele>3.982666</ele>
        <time>2017-04-23T08:36:24Z</time>
      </trkpt>
      <trkpt lat="48.55704" lon="-4.71798">
        <ele>5.4245605</ele>
        <time>2017-04-23T08:36:31Z</time>
      </trkpt>
      <trkpt lat="48.55708" lon="-4.71798">
        <ele>6.8664551</ele>
        <time>2017-04-23T08:36:37Z</time>
      </trkpt>
      <trkpt lat="48.55712" lon="-4.71793">
        <ele>7.8278809</ele>
        <time>2017-04-23T08:36:44Z</time>
      </trkpt>
      <trkpt lat="48.55715" lon="-4.7179">
        <ele>7.8278809</ele>
        <time>2017-04-23T08:36:48Z</time>
      </trkpt>
      <trkpt lat="48.55719" lon="-4.71789">
        <ele>8.3085938</ele>
        <time>2017-04-23T08:36:53Z</time>
      </trkpt>
      <trkpt lat="48.55722" lon="-4.71787">
        <ele>8.3085938</ele>
        <time>2017-04-23T08:36:56Z</time>
      </trkpt>
      <trkpt lat="48.55733" lon="-4.71778">
        <ele>7.8278809</ele>
        <time>2017-04-23T08:37:04Z</time>
      </trkpt>
      <trkpt lat="48.55736" lon="-4.71777">
        <ele>8.3085938</ele>
        <time>2017-04-23T08:37:06Z</time>
      </trkpt>
      <trkpt lat="48.55741" lon="-4.7178">
        <ele>7.8278809</ele>
        <time>2017-04-23T08:37:11Z</time>
      </trkpt>
      <trkpt lat="48.55751" lon="-4.71779">
        <ele>7.8278809</ele>
        <time>2017-04-23T08:37:18Z</time>
      </trkpt>
      <trkpt lat="48.55757" lon="-4.71774">
        <ele>7.347168</ele>
        <time>2017-04-23T08:37:23Z</time>
      </trkpt>
      <trkpt lat="48.55764" lon="-4.71768">
        <ele>6.8664551</ele>
        <time>2017-04-23T08:37:29Z</time>
      </trkpt>
      <trkpt lat="48.55771" lon="-4.71761">
        <ele>6.3858643</ele>
        <time>2017-04-23T08:37:35Z</time>
      </trkpt>
      <trkpt lat="48.5578" lon="-4.71759">
        <ele>6.8664551</ele>
        <time>2017-04-23T08:37:41Z</time>
      </trkpt>
      <trkpt lat="48.5579" lon="-4.71755">
        <ele>7.347168</ele>
        <time>2017-04-23T08:37:48Z</time>
      </trkpt>
      <trkpt lat="48.55796" lon="-4.71755">
        <ele>7.8278809</ele>
        <time>2017-04-23T08:37:53Z</time>
      </trkpt>
      <trkpt lat="48.55804" lon="-4.71756">
        <ele>8.7891846</ele>
        <time>2017-04-23T08:37:59Z</time>
      </trkpt>
      <trkpt lat="48.5581" lon="-4.71754">
        <ele>9.2698975</ele>
        <time>2017-04-23T08:38:05Z</time>
      </trkpt>
      <trkpt lat="48.5582" lon="-4.71747">
        <ele>9.7506104</ele>
        <time>2017-04-23T08:38:12Z</time>
      </trkpt>
      <trkpt lat="48.55829" lon="-4.71741">
        <ele>9.7506104</ele>
        <time>2017-04-23T08:38:19Z</time>
      </trkpt>
      <trkpt lat="48.5584" lon="-4.71738">
        <ele>10.2312012</ele>
        <time>2017-04-23T08:38:27Z</time>
      </trkpt>
      <trkpt lat="48.5585" lon="-4.7174">
        <ele>9.7506104</ele>
        <time>2017-04-23T08:38:33Z</time>
      </trkpt>
      <trkpt lat="48.55858" lon="-4.71746">
        <ele>9.7506104</ele>
        <time>2017-04-23T08:38:39Z</time>
      </trkpt>
      <trkpt lat="48.55867" lon="-4.71755">
        <ele>9.2698975</ele>
        <time>2017-04-23T08:38:46Z</time>
      </trkpt>
      <trkpt lat="48.55872" lon="-4.71765">
        <ele>8.7891846</ele>
        <time>2017-04-23T08:38:52Z</time>
      </trkpt>
      <trkpt lat="48.55874" lon="-4.71781">
        <ele>8.3085938</ele>
        <time>2017-04-23T08:38:59Z</time>
      </trkpt>
      <trkpt lat="48.5587" lon="-4.71793">
        <ele>7.8278809</ele>
        <time>2017-04-23T08:39:04Z</time>
      </trkpt>
      <trkpt lat="48.55869" lon="-4.71811">
        <ele>9.2698975</ele>
        <time>2017-04-23T08:39:12Z</time>
      </trkpt>
      <trkpt lat="48.55867" lon="-4.71826">
        <ele>9.7506104</ele>
        <time>2017-04-23T08:39:18Z</time>
      </trkpt>
      <trkpt lat="48.55863" lon="-4.7184">
        <ele>10.711792</ele>
        <time>2017-04-23T08:39:24Z</time>
      </trkpt>
      <trkpt lat="48.55857" lon="-4.71852">
        <ele>11.6732178</ele>
        <time>2017-04-23T08:39:31Z</time>
      </trkpt>
      <trkpt lat="48.55851" lon="-4.71869">
        <ele>12.1538086</ele>
        <time>2017-04-23T08:39:39Z</time>
      </trkpt>
      <trkpt lat="48.5585" lon="-4.71874">
        <ele>12.6343994</ele>
        <time>2017-04-23T08:39:42Z</time>
      </trkpt>
      <trkpt lat="48.55846" lon="-4.71887">
        <ele>13.1151123</ele>
        <time>2017-04-23T08:39:48Z</time>
      </trkpt>
      <trkpt lat="48.55842" lon="-4.71902">
        <ele>13.1151123</ele>
        <time>2017-04-23T08:39:55Z</time>
      </trkpt>
      <trkpt lat="48.55839" lon="-4.71909">
        <ele>12.6343994</ele>
        <time>2017-04-23T08:39:59Z</time>
      </trkpt>
      <trkpt lat="48.55836" lon="-4.71922">
        <ele>12.1538086</ele>
        <time>2017-04-23T08:40:05Z</time>
      </trkpt>
      <trkpt lat="48.55832" lon="-4.71936">
        <ele>11.6732178</ele>
        <time>2017-04-23T08:40:11Z</time>
      </trkpt>
      <trkpt lat="48.55826" lon="-4.71941">
        <ele>11.1925049</ele>
        <time>2017-04-23T08:40:16Z</time>
      </trkpt>
      <trkpt lat="48.55821" lon="-4.71948">
        <ele>11.6732178</ele>
        <time>2017-04-23T08:40:21Z</time>
      </trkpt>
      <trkpt lat="48.55818" lon="-4.71968">
        <ele>12.6343994</ele>
        <time>2017-04-23T08:40:30Z</time>
      </trkpt>
      <trkpt lat="48.55818" lon="-4.71979">
        <ele>13.1151123</ele>
        <time>2017-04-23T08:40:35Z</time>
      </trkpt>
      <trkpt lat="48.55816" lon="-4.71993">
        <ele>13.1151123</ele>
        <time>2017-04-23T08:40:42Z</time>
      </trkpt>
      <trkpt lat="48.55815" lon="-4.71999">
        <ele>13.5958252</ele>
        <time>2017-04-23T08:40:46Z</time>
      </trkpt>
      <trkpt lat="48.55818" lon="-4.7201">
        <ele>14.076416</ele>
        <time>2017-04-23T08:40:53Z</time>
      </trkpt>
      <trkpt lat="48.55821" lon="-4.72018">
        <ele>13.5958252</ele>
        <time>2017-04-23T08:40:57Z</time>
      </trkpt>
      <trkpt lat="48.55828" lon="-4.72034">
        <ele>12.6343994</ele>
        <time>2017-04-23T08:41:06Z</time>
      </trkpt>
      <trkpt lat="48.55835" lon="-4.72049">
        <ele>12.1538086</ele>
        <time>2017-04-23T08:41:14Z</time>
      </trkpt>
      <trkpt lat="48.55842" lon="-4.72067">
        <ele>11.6732178</ele>
        <time>2017-04-23T08:41:23Z</time>
      </trkpt>
      <trkpt lat="48.55851" lon="-4.72081">
        <ele>12.1538086</ele>
        <time>2017-04-23T08:41:32Z</time>
      </trkpt>
      <trkpt lat="48.55853" lon="-4.72084">
        <ele>12.6343994</ele>
        <time>2017-04-23T08:41:34Z</time>
      </trkpt>
      <trkpt lat="48.55855" lon="-4.72099">
        <ele>13.1151123</ele>
        <time>2017-04-23T08:41:42Z</time>
      </trkpt>
      <trkpt lat="48.55862" lon="-4.72117">
        <ele>13.5958252</ele>
        <time>2017-04-23T08:41:52Z</time>
      </trkpt>
      <trkpt lat="48.55865" lon="-4.72131">
        <ele>12.1538086</ele>
        <time>2017-04-23T08:41:58Z</time>
      </trkpt>
      <trkpt lat="48.55866" lon="-4.72146">
        <ele>12.1538086</ele>
        <time>2017-04-23T08:42:04Z</time>
      </trkpt>
      <trkpt lat="48.55867" lon="-4.7216">
        <ele>13.1151123</ele>
        <time>2017-04-23T08:42:10Z</time>
      </trkpt>
      <trkpt lat="48.55869" lon="-4.72176">
        <ele>14.076416</ele>
        <time>2017-04-23T08:42:17Z</time>
      </trkpt>
      <trkpt lat="48.55868" lon="-4.72194">
        <ele>15.5184326</ele>
        <time>2017-04-23T08:42:24Z</time>
      </trkpt>
      <trkpt lat="48.55865" lon="-4.72209">
        <ele>15.0377197</ele>
        <time>2017-04-23T08:42:31Z</time>
      </trkpt>
      <trkpt lat="48.55862" lon="-4.7222">
        <ele>15.0377197</ele>
        <time>2017-04-23T08:42:36Z</time>
      </trkpt>
      <trkpt lat="48.55857" lon="-4.72232">
        <ele>15.0377197</ele>
        <time>2017-04-23T08:42:42Z</time>
      </trkpt>
      <trkpt lat="48.55854" lon="-4.72242">
        <ele>15.0377197</ele>
        <time>2017-04-23T08:42:46Z</time>
      </trkpt>
      <trkpt lat="48.55851" lon="-4.72253">
        <ele>14.5570068</ele>
        <time>2017-04-23T08:42:51Z</time>
      </trkpt>
      <trkpt lat="48.55848" lon="-4.72268">
        <ele>13.5958252</ele>
        <time>2017-04-23T08:42:58Z</time>
      </trkpt>
      <trkpt lat="48.55839" lon="-4.72285">
        <ele>12.6343994</ele>
        <time>2017-04-23T08:43:07Z</time>
      </trkpt>
      <trkpt lat="48.5583" lon="-4.72298">
        <ele>12.6343994</ele>
        <time>2017-04-23T08:43:15Z</time>
      </trkpt>
      <trkpt lat="48.55821" lon="-4.72313">
        <ele>12.1538086</ele>
        <time>2017-04-23T08:43:24Z</time>
      </trkpt>
      <trkpt lat="48.55809" lon="-4.7232">
        <ele>13.5958252</ele>
        <time>2017-04-23T08:43:32Z</time>
      </trkpt>
      <trkpt lat="48.55802" lon="-4.72326">
        <ele>13.5958252</ele>
        <time>2017-04-23T08:43:38Z</time>
      </trkpt>
      <trkpt lat="48.55791" lon="-4.72335">
        <ele>14.076416</ele>
        <time>2017-04-23T08:43:46Z</time>
      </trkpt>
      <trkpt lat="48.55785" lon="-4.72346">
        <ele>13.5958252</ele>
        <time>2017-04-23T08:43:52Z</time>
      </trkpt>
      <trkpt lat="48.55779" lon="-4.72358">
        <ele>12.1538086</ele>
        <time>2017-04-23T08:43:59Z</time>
      </trkpt>
      <trkpt lat="48.55773" lon="-4.72374">
        <ele>12.6343994</ele>
        <time>2017-04-23T08:44:07Z</time>
      </trkpt>
      <trkpt lat="48.55768" lon="-4.72385">
        <ele>12.1538086</ele>
        <time>2017-04-23T08:44:13Z</time>
      </trkpt>
      <trkpt lat="48.55762" lon="-4.72401">
        <ele>11.6732178</ele>
        <time>2017-04-23T08:44:22Z</time>
      </trkpt>
      <trkpt lat="48.55756" lon="-4.7241">
        <ele>11.1925049</ele>
        <time>2017-04-23T08:44:28Z</time>
      </trkpt>
      <trkpt lat="48.55753" lon="-4.72416">
        <ele>11.6732178</ele>
        <time>2017-04-23T08:44:32Z</time>
      </trkpt>
      <trkpt lat="48.55751" lon="-4.72427">
        <ele>10.711792</ele>
        <time>2017-04-23T08:44:38Z</time>
      </trkpt>
      <trkpt lat="48.55752" lon="-4.72438">
        <ele>10.2312012</ele>
        <time>2017-04-23T08:44:44Z</time>
      </trkpt>
      <trkpt lat="48.55751" lon="-4.72447">
        <ele>9.7506104</ele>
        <time>2017-04-23T08:44:48Z</time>
      </trkpt>
      <trkpt lat="48.55748" lon="-4.72462">
        <ele>10.711792</ele>
        <time>2017-04-23T08:44:56Z</time>
      </trkpt>
      <trkpt lat="48.55747" lon="-4.72464">
        <ele>10.711792</ele>
        <time>2017-04-23T08:44:57Z</time>
      </trkpt>
      <trkpt lat="48.55744" lon="-4.72474">
        <ele>11.1925049</ele>
        <time>2017-04-23T08:45:02Z</time>
      </trkpt>
      <trkpt lat="48.55741" lon="-4.7248">
        <ele>12.6343994</ele>
        <time>2017-04-23T08:45:06Z</time>
      </trkpt>
      <trkpt lat="48.55741" lon="-4.72484">
        <ele>12.6343994</ele>
        <time>2017-04-23T08:45:08Z</time>
      </trkpt>
      <trkpt lat="48.55741" lon="-4.7249">
        <ele>12.6343994</ele>
        <time>2017-04-23T08:45:12Z</time>
      </trkpt>
      <trkpt lat="48.55741" lon="-4.72502">
        <ele>12.6343994</ele>
        <time>2017-04-23T08:45:19Z</time>
      </trkpt>
      <trkpt lat="48.55742" lon="-4.72515">
        <ele>12.1538086</ele>
        <time>2017-04-23T08:45:26Z</time>
      </trkpt>
      <trkpt lat="48.55742" lon="-4.72521">
        <ele>11.6732178</ele>
        <time>2017-04-23T08:45:29Z</time>
      </trkpt>
      <trkpt lat="48.55742" lon="-4.72533">
        <ele>11.1925049</ele>
        <time>2017-04-23T08:45:36Z</time>
      </trkpt>
      <trkpt lat="48.55741" lon="-4.72541">
        <ele>10.711792</ele>
        <time>2017-04-23T08:45:40Z</time>
      </trkpt>
      <trkpt lat="48.55737" lon="-4.72551">
        <ele>11.1925049</ele>
        <time>2017-04-23T08:45:47Z</time>
      </trkpt>
      <trkpt lat="48.55737" lon="-4.72562">
        <ele>10.2312012</ele>
        <time>2017-04-23T08:45:53Z</time>
      </trkpt>
      <trkpt lat="48.55735" lon="-4.72563">
        <ele>10.2312012</ele>
        <time>2017-04-23T08:45:57Z</time>
      </trkpt>
      <trkpt lat="48.55735" lon="-4.72567">
        <ele>10.2312012</ele>
        <time>2017-04-23T08:46:03Z</time>
      </trkpt>
      <trkpt lat="48.55732" lon="-4.7258">
        <ele>10.2312012</ele>
        <time>2017-04-23T08:46:08Z</time>
      </trkpt>
      <trkpt lat="48.55728" lon="-4.72592">
        <ele>9.7506104</ele>
        <time>2017-04-23T08:46:14Z</time>
      </trkpt>
      <trkpt lat="48.55725" lon="-4.72605">
        <ele>10.2312012</ele>
        <time>2017-04-23T08:46:20Z</time>
      </trkpt>
      <trkpt lat="48.5572" lon="-4.72613">
        <ele>11.1925049</ele>
        <time>2017-04-23T08:46:25Z</time>
      </trkpt>
      <trkpt lat="48.55718" lon="-4.72624">
        <ele>11.1925049</ele>
        <time>2017-04-23T08:46:31Z</time>
      </trkpt>
      <trkpt lat="48.5572" lon="-4.7264">
        <ele>10.711792</ele>
        <time>2017-04-23T08:46:38Z</time>
      </trkpt>
      <trkpt lat="48.55719" lon="-4.72657">
        <ele>10.2312012</ele>
        <time>2017-04-23T08:46:46Z</time>
      </trkpt>
      <trkpt lat="48.55717" lon="-4.72674">
        <ele>9.7506104</ele>
        <time>2017-04-23T08:46:53Z</time>
      </trkpt>
      <trkpt lat="48.55713" lon="-4.72684">
        <ele>10.2312012</ele>
        <time>2017-04-23T08:46:58Z</time>
      </trkpt>
      <trkpt lat="48.55708" lon="-4.72699">
        <ele>11.6732178</ele>
        <time>2017-04-23T08:47:05Z</time>
      </trkpt>
      <trkpt lat="48.55705" lon="-4.72713">
        <ele>11.6732178</ele>
        <time>2017-04-23T08:47:11Z</time>
      </trkpt>
      <trkpt lat="48.55702" lon="-4.72724">
        <ele>11.6732178</ele>
        <time>2017-04-23T08:47:16Z</time>
      </trkpt>
      <trkpt lat="48.55697" lon="-4.72735">
        <ele>12.6343994</ele>
        <time>2017-04-23T08:47:21Z</time>
      </trkpt>
      <trkpt lat="48.55696" lon="-4.72737">
        <ele>12.6343994</ele>
        <time>2017-04-23T08:47:22Z</time>
      </trkpt>
      <trkpt lat="48.55694" lon="-4.72751">
        <ele>12.6343994</ele>
        <time>2017-04-23T08:47:28Z</time>
      </trkpt>
      <trkpt lat="48.55685" lon="-4.72769">
        <ele>12.1538086</ele>
        <time>2017-04-23T08:47:36Z</time>
      </trkpt>
      <trkpt lat="48.55681" lon="-4.72781">
        <ele>12.6343994</ele>
        <time>2017-04-23T08:47:41Z</time>
      </trkpt>
      <trkpt lat="48.55675" lon="-4.72795">
        <ele>13.1151123</ele>
        <time>2017-04-23T08:47:46Z</time>
      </trkpt>
      <trkpt lat="48.5567" lon="-4.72807">
        <ele>13.5958252</ele>
        <time>2017-04-23T08:47:51Z</time>
      </trkpt>
      <trkpt lat="48.55664" lon="-4.72814">
        <ele>14.5570068</ele>
        <time>2017-04-23T08:47:56Z</time>
      </trkpt>
      <trkpt lat="48.55658" lon="-4.72816">
        <ele>15.0377197</ele>
        <time>2017-04-23T08:48:00Z</time>
      </trkpt>
      <trkpt lat="48.55652" lon="-4.72827">
        <ele>15.5184326</ele>
        <time>2017-04-23T08:48:07Z</time>
      </trkpt>
      <trkpt lat="48.55648" lon="-4.72841">
        <ele>15.5184326</ele>
        <time>2017-04-23T08:48:13Z</time>
      </trkpt>
      <trkpt lat="48.55641" lon="-4.72857">
        <ele>15.9990234</ele>
        <time>2017-04-23T08:48:21Z</time>
      </trkpt>
      <trkpt lat="48.55635" lon="-4.72871">
        <ele>16.4797363</ele>
        <time>2017-04-23T08:48:28Z</time>
      </trkpt>
      <trkpt lat="48.55631" lon="-4.72882">
        <ele>15.9990234</ele>
        <time>2017-04-23T08:48:33Z</time>
      </trkpt>
      <trkpt lat="48.55628" lon="-4.72895">
        <ele>16.4797363</ele>
        <time>2017-04-23T08:48:39Z</time>
      </trkpt>
      <trkpt lat="48.55622" lon="-4.72914">
        <ele>16.9604492</ele>
        <time>2017-04-23T08:48:48Z</time>
      </trkpt>
      <trkpt lat="48.55617" lon="-4.72928">
        <ele>16.4797363</ele>
        <time>2017-04-23T08:48:55Z</time>
      </trkpt>
      <trkpt lat="48.55616" lon="-4.72943">
        <ele>15.9990234</ele>
        <time>2017-04-23T08:49:02Z</time>
      </trkpt>
      <trkpt lat="48.55616" lon="-4.72962">
        <ele>15.9990234</ele>
        <time>2017-04-23T08:49:11Z</time>
      </trkpt>
      <trkpt lat="48.55613" lon="-4.72977">
        <ele>15.0377197</ele>
        <time>2017-04-23T08:49:17Z</time>
      </trkpt>
      <trkpt lat="48.5561" lon="-4.72995">
        <ele>14.5570068</ele>
        <time>2017-04-23T08:49:25Z</time>
      </trkpt>
      <trkpt lat="48.55606" lon="-4.73011">
        <ele>14.076416</ele>
        <time>2017-04-23T08:49:32Z</time>
      </trkpt>
      <trkpt lat="48.55603" lon="-4.73025">
        <ele>13.5958252</ele>
        <time>2017-04-23T08:49:38Z</time>
      </trkpt>
      <trkpt lat="48.55599" lon="-4.73039">
        <ele>14.076416</ele>
        <time>2017-04-23T08:49:44Z</time>
      </trkpt>
      <trkpt lat="48.55592" lon="-4.73049">
        <ele>15.0377197</ele>
        <time>2017-04-23T08:49:50Z</time>
      </trkpt>
      <trkpt lat="48.55582" lon="-4.73058">
        <ele>15.0377197</ele>
        <time>2017-04-23T08:49:57Z</time>
      </trkpt>
      <trkpt lat="48.55569" lon="-4.73061">
        <ele>15.5184326</ele>
        <time>2017-04-23T08:50:05Z</time>
      </trkpt>
      <trkpt lat="48.55556" lon="-4.73066">
        <ele>15.5184326</ele>
        <time>2017-04-23T08:50:12Z</time>
      </trkpt>
      <trkpt lat="48.55549" lon="-4.73078">
        <ele>15.5184326</ele>
        <time>2017-04-23T08:50:19Z</time>
      </trkpt>
      <trkpt lat="48.55543" lon="-4.73096">
        <ele>14.5570068</ele>
        <time>2017-04-23T08:50:26Z</time>
      </trkpt>
      <trkpt lat="48.55534" lon="-4.73112">
        <ele>14.076416</ele>
        <time>2017-04-23T08:50:34Z</time>
      </trkpt>
      <trkpt lat="48.55528" lon="-4.73123">
        <ele>14.5570068</ele>
        <time>2017-04-23T08:50:39Z</time>
      </trkpt>
      <trkpt lat="48.55526" lon="-4.73124">
        <ele>14.5570068</ele>
        <time>2017-04-23T08:50:40Z</time>
      </trkpt>
      <trkpt lat="48.55517" lon="-4.73117">
        <ele>14.5570068</ele>
        <time>2017-04-23T08:50:46Z</time>
      </trkpt>
      <trkpt lat="48.55506" lon="-4.73107">
        <ele>15.5184326</ele>
        <time>2017-04-23T08:50:54Z</time>
      </trkpt>
      <trkpt lat="48.55505" lon="-4.73106">
        <ele>15.5184326</ele>
        <time>2017-04-23T08:50:55Z</time>
      </trkpt>
      <trkpt lat="48.55499" lon="-4.73107">
        <ele>15.9990234</ele>
        <time>2017-04-23T08:50:59Z</time>
      </trkpt>
      <trkpt lat="48.55484" lon="-4.73118">
        <ele>15.5184326</ele>
        <time>2017-04-23T08:51:09Z</time>
      </trkpt>
      <trkpt lat="48.55468" lon="-4.73125">
        <ele>15.0377197</ele>
        <time>2017-04-23T08:51:19Z</time>
      </trkpt>
      <trkpt lat="48.55453" lon="-4.73133">
        <ele>15.0377197</ele>
        <time>2017-04-23T08:51:29Z</time>
      </trkpt>
      <trkpt lat="48.5544" lon="-4.73142">
        <ele>15.0377197</ele>
        <time>2017-04-23T08:51:37Z</time>
      </trkpt>
      <trkpt lat="48.55429" lon="-4.73152">
        <ele>15.5184326</ele>
        <time>2017-04-23T08:51:45Z</time>
      </trkpt>
      <trkpt lat="48.55418" lon="-4.73164">
        <ele>15.0377197</ele>
        <time>2017-04-23T08:51:53Z</time>
      </trkpt>
      <trkpt lat="48.55405" lon="-4.73179">
        <ele>15.0377197</ele>
        <time>2017-04-23T08:52:03Z</time>
      </trkpt>
      <trkpt lat="48.55397" lon="-4.73191">
        <ele>15.0377197</ele>
        <time>2017-04-23T08:52:10Z</time>
      </trkpt>
      <trkpt lat="48.55387" lon="-4.73206">
        <ele>15.0377197</ele>
        <time>2017-04-23T08:52:18Z</time>
      </trkpt>
      <trkpt lat="48.55376" lon="-4.73221">
        <ele>14.076416</ele>
        <time>2017-04-23T08:52:26Z</time>
      </trkpt>
      <trkpt lat="48.55365" lon="-4.73235">
        <ele>14.076416</ele>
        <time>2017-04-23T08:52:34Z</time>
      </trkpt>
      <trkpt lat="48.55356" lon="-4.73246">
        <ele>14.5570068</ele>
        <time>2017-04-23T08:52:39Z</time>
      </trkpt>
      <trkpt lat="48.55347" lon="-4.73256">
        <ele>15.0377197</ele>
        <time>2017-04-23T08:52:44Z</time>
      </trkpt>
      <trkpt lat="48.55337" lon="-4.73263">
        <ele>15.5184326</ele>
        <time>2017-04-23T08:52:50Z</time>
      </trkpt>
      <trkpt lat="48.55328" lon="-4.73273">
        <ele>16.4797363</ele>
        <time>2017-04-23T08:52:55Z</time>
      </trkpt>
      <trkpt lat="48.55326" lon="-4.73277">
        <ele>16.4797363</ele>
        <time>2017-04-23T08:52:57Z</time>
      </trkpt>
      <trkpt lat="48.55322" lon="-4.73289">
        <ele>16.4797363</ele>
        <time>2017-04-23T08:53:02Z</time>
      </trkpt>
      <trkpt lat="48.55312" lon="-4.733">
        <ele>15.5184326</ele>
        <time>2017-04-23T08:53:09Z</time>
      </trkpt>
      <trkpt lat="48.55304" lon="-4.73311">
        <ele>15.5184326</ele>
        <time>2017-04-23T08:53:15Z</time>
      </trkpt>
      <trkpt lat="48.55292" lon="-4.73318">
        <ele>14.5570068</ele>
        <time>2017-04-23T08:53:22Z</time>
      </trkpt>
      <trkpt lat="48.55283" lon="-4.73328">
        <ele>14.5570068</ele>
        <time>2017-04-23T08:53:27Z</time>
      </trkpt>
      <trkpt lat="48.55275" lon="-4.73336">
        <ele>14.5570068</ele>
        <time>2017-04-23T08:53:32Z</time>
      </trkpt>
      <trkpt lat="48.55265" lon="-4.73347">
        <ele>15.0377197</ele>
        <time>2017-04-23T08:53:39Z</time>
      </trkpt>
      <trkpt lat="48.55254" lon="-4.73354">
        <ele>14.5570068</ele>
        <time>2017-04-23T08:53:45Z</time>
      </trkpt>
      <trkpt lat="48.55243" lon="-4.73351">
        <ele>14.5570068</ele>
        <time>2017-04-23T08:53:51Z</time>
      </trkpt>
      <trkpt lat="48.55234" lon="-4.73341">
        <ele>15.5184326</ele>
        <time>2017-04-23T08:53:57Z</time>
      </trkpt>
      <trkpt lat="48.55223" lon="-4.73334">
        <ele>15.5184326</ele>
        <time>2017-04-23T08:54:04Z</time>
      </trkpt>
      <trkpt lat="48.5521" lon="-4.7333">
        <ele>15.5184326</ele>
        <time>2017-04-23T08:54:12Z</time>
      </trkpt>
      <trkpt lat="48.55197" lon="-4.73331">
        <ele>15.0377197</ele>
        <time>2017-04-23T08:54:20Z</time>
      </trkpt>
      <trkpt lat="48.55186" lon="-4.73338">
        <ele>15.0377197</ele>
        <time>2017-04-23T08:54:28Z</time>
      </trkpt>
      <trkpt lat="48.55176" lon="-4.73348">
        <ele>15.0377197</ele>
        <time>2017-04-23T08:54:36Z</time>
      </trkpt>
      <trkpt lat="48.5517" lon="-4.73352">
        <ele>14.5570068</ele>
        <time>2017-04-23T08:54:41Z</time>
      </trkpt>
      <trkpt lat="48.55163" lon="-4.73352">
        <ele>15.5184326</ele>
        <time>2017-04-23T08:54:46Z</time>
      </trkpt>
      <trkpt lat="48.55154" lon="-4.73361">
        <ele>15.0377197</ele>
        <time>2017-04-23T08:54:54Z</time>
      </trkpt>
      <trkpt lat="48.55146" lon="-4.73368">
        <ele>15.0377197</ele>
        <time>2017-04-23T08:55:00Z</time>
      </trkpt>
      <trkpt lat="48.55142" lon="-4.7338">
        <ele>14.5570068</ele>
        <time>2017-04-23T08:55:05Z</time>
      </trkpt>
      <trkpt lat="48.5514" lon="-4.73394">
        <ele>14.076416</ele>
        <time>2017-04-23T08:55:10Z</time>
      </trkpt>
      <trkpt lat="48.55131" lon="-4.73408">
        <ele>15.0377197</ele>
        <time>2017-04-23T08:55:17Z</time>
      </trkpt>
      <trkpt lat="48.5512" lon="-4.73413">
        <ele>15.5184326</ele>
        <time>2017-04-23T08:55:24Z</time>
      </trkpt>
      <trkpt lat="48.55107" lon="-4.7342">
        <ele>15.5184326</ele>
        <time>2017-04-23T08:55:32Z</time>
      </trkpt>
      <trkpt lat="48.55092" lon="-4.73421">
        <ele>15.9990234</ele>
        <time>2017-04-23T08:55:40Z</time>
      </trkpt>
      <trkpt lat="48.55081" lon="-4.73418">
        <ele>15.9990234</ele>
        <time>2017-04-23T08:55:47Z</time>
      </trkpt>
      <trkpt lat="48.5507" lon="-4.73429">
        <ele>15.0377197</ele>
        <time>2017-04-23T08:55:54Z</time>
      </trkpt>
      <trkpt lat="48.55067" lon="-4.73433">
        <ele>14.5570068</ele>
        <time>2017-04-23T08:55:56Z</time>
      </trkpt>
      <trkpt lat="48.55061" lon="-4.73431">
        <ele>15.0377197</ele>
        <time>2017-04-23T08:56:00Z</time>
      </trkpt>
      <trkpt lat="48.55055" lon="-4.73429">
        <ele>14.5570068</ele>
        <time>2017-04-23T08:56:03Z</time>
      </trkpt>
      <trkpt lat="48.5505" lon="-4.73433">
        <ele>15.0377197</ele>
        <time>2017-04-23T08:56:08Z</time>
      </trkpt>
      <trkpt lat="48.55046" lon="-4.73438">
        <ele>15.5184326</ele>
        <time>2017-04-23T08:56:13Z</time>
      </trkpt>
      <trkpt lat="48.55034" lon="-4.73436">
        <ele>15.5184326</ele>
        <time>2017-04-23T08:56:21Z</time>
      </trkpt>
      <trkpt lat="48.55025" lon="-4.73443">
        <ele>16.4797363</ele>
        <time>2017-04-23T08:56:28Z</time>
      </trkpt>
      <trkpt lat="48.55018" lon="-4.73448">
        <ele>15.9990234</ele>
        <time>2017-04-23T08:56:33Z</time>
      </trkpt>
      <trkpt lat="48.55007" lon="-4.73457">
        <ele>16.4797363</ele>
        <time>2017-04-23T08:56:41Z</time>
      </trkpt>
      <trkpt lat="48.55001" lon="-4.73467">
        <ele>15.5184326</ele>
        <time>2017-04-23T08:56:46Z</time>
      </trkpt>
      <trkpt lat="48.54996" lon="-4.73479">
        <ele>15.9990234</ele>
        <time>2017-04-23T08:56:52Z</time>
      </trkpt>
      <trkpt lat="48.5499" lon="-4.73489">
        <ele>17.4411621</ele>
        <time>2017-04-23T08:56:57Z</time>
      </trkpt>
      <trkpt lat="48.54983" lon="-4.73499">
        <ele>17.9217529</ele>
        <time>2017-04-23T08:57:04Z</time>
      </trkpt>
      <trkpt lat="48.54978" lon="-4.7351">
        <ele>17.4411621</ele>
        <time>2017-04-23T08:57:10Z</time>
      </trkpt>
      <trkpt lat="48.54973" lon="-4.73523">
        <ele>17.9217529</ele>
        <time>2017-04-23T08:57:14Z</time>
      </trkpt>
      <trkpt lat="48.54966" lon="-4.73534">
        <ele>16.9604492</ele>
        <time>2017-04-23T08:57:22Z</time>
      </trkpt>
      <trkpt lat="48.54964" lon="-4.73542">
        <ele>15.9990234</ele>
        <time>2017-04-23T08:57:26Z</time>
      </trkpt>
      <trkpt lat="48.54961" lon="-4.73555">
        <ele>14.076416</ele>
        <time>2017-04-23T08:57:32Z</time>
      </trkpt>
      <trkpt lat="48.54953" lon="-4.73564">
        <ele>13.5958252</ele>
        <time>2017-04-23T08:57:38Z</time>
      </trkpt>
      <trkpt lat="48.54946" lon="-4.7357">
        <ele>13.5958252</ele>
        <time>2017-04-23T08:57:44Z</time>
      </trkpt>
      <trkpt lat="48.54945" lon="-4.7358">
        <ele>15.0377197</ele>
        <time>2017-04-23T08:57:50Z</time>
      </trkpt>
      <trkpt lat="48.54948" lon="-4.73586">
        <ele>15.0377197</ele>
        <time>2017-04-23T08:57:54Z</time>
      </trkpt>
      <trkpt lat="48.54948" lon="-4.73592">
        <ele>15.0377197</ele>
        <time>2017-04-23T08:57:58Z</time>
      </trkpt>
      <trkpt lat="48.54941" lon="-4.73599">
        <ele>16.9604492</ele>
        <time>2017-04-23T08:58:05Z</time>
      </trkpt>
      <trkpt lat="48.54936" lon="-4.73607">
        <ele>18.4023438</ele>
        <time>2017-04-23T08:58:11Z</time>
      </trkpt>
      <trkpt lat="48.54934" lon="-4.73619">
        <ele>18.8830566</ele>
        <time>2017-04-23T08:58:17Z</time>
      </trkpt>
      <trkpt lat="48.54933" lon="-4.73634">
        <ele>18.8830566</ele>
        <time>2017-04-23T08:58:24Z</time>
      </trkpt>
      <trkpt lat="48.5493" lon="-4.73647">
        <ele>18.8830566</ele>
        <time>2017-04-23T08:58:30Z</time>
      </trkpt>
      <trkpt lat="48.5493" lon="-4.73653">
        <ele>18.4023438</ele>
        <time>2017-04-23T08:58:33Z</time>
      </trkpt>
      <trkpt lat="48.54927" lon="-4.73662">
        <ele>18.4023438</ele>
        <time>2017-04-23T08:58:38Z</time>
      </trkpt>
      <trkpt lat="48.54926" lon="-4.7367">
        <ele>19.3637695</ele>
        <time>2017-04-23T08:58:42Z</time>
      </trkpt>
      <trkpt lat="48.54923" lon="-4.73681">
        <ele>20.3249512</ele>
        <time>2017-04-23T08:58:47Z</time>
      </trkpt>
      <trkpt lat="48.54921" lon="-4.73685">
        <ele>20.8056641</ele>
        <time>2017-04-23T08:58:50Z</time>
      </trkpt>
      <trkpt lat="48.54917" lon="-4.73697">
        <ele>20.8056641</ele>
        <time>2017-04-23T08:58:56Z</time>
      </trkpt>
      <trkpt lat="48.5491" lon="-4.73711">
        <ele>19.8443604</ele>
        <time>2017-04-23T08:59:04Z</time>
      </trkpt>
      <trkpt lat="48.54903" lon="-4.73725">
        <ele>19.3637695</ele>
        <time>2017-04-23T08:59:11Z</time>
      </trkpt>
      <trkpt lat="48.54892" lon="-4.7374">
        <ele>19.8443604</ele>
        <time>2017-04-23T08:59:20Z</time>
      </trkpt>
      <trkpt lat="48.54884" lon="-4.73752">
        <ele>19.3637695</ele>
        <time>2017-04-23T08:59:27Z</time>
      </trkpt>
      <trkpt lat="48.54878" lon="-4.73764">
        <ele>19.3637695</ele>
        <time>2017-04-23T08:59:33Z</time>
      </trkpt>
      <trkpt lat="48.5487" lon="-4.73773">
        <ele>19.3637695</ele>
        <time>2017-04-23T08:59:39Z</time>
      </trkpt>
      <trkpt lat="48.54865" lon="-4.73784">
        <ele>18.8830566</ele>
        <time>2017-04-23T08:59:45Z</time>
      </trkpt>
      <trkpt lat="48.54858" lon="-4.7379">
        <ele>18.4023438</ele>
        <time>2017-04-23T08:59:50Z</time>
      </trkpt>
      <trkpt lat="48.54849" lon="-4.73803">
        <ele>18.4023438</ele>
        <time>2017-04-23T08:59:58Z</time>
      </trkpt>
      <trkpt lat="48.54841" lon="-4.73811">
        <ele>17.9217529</ele>
        <time>2017-04-23T09:00:04Z</time>
      </trkpt>
      <trkpt lat="48.5483" lon="-4.73818">
        <ele>17.9217529</ele>
        <time>2017-04-23T09:00:12Z</time>
      </trkpt>
      <trkpt lat="48.54821" lon="-4.73828">
        <ele>17.9217529</ele>
        <time>2017-04-23T09:00:19Z</time>
      </trkpt>
      <trkpt lat="48.54815" lon="-4.7384">
        <ele>19.3637695</ele>
        <time>2017-04-23T09:00:25Z</time>
      </trkpt>
      <trkpt lat="48.54809" lon="-4.73848">
        <ele>19.3637695</ele>
        <time>2017-04-23T09:00:29Z</time>
      </trkpt>
      <trkpt lat="48.54798" lon="-4.73857">
        <ele>19.8443604</ele>
        <time>2017-04-23T09:00:36Z</time>
      </trkpt>
      <trkpt lat="48.54787" lon="-4.73855">
        <ele>19.8443604</ele>
        <time>2017-04-23T09:00:43Z</time>
      </trkpt>
      <trkpt lat="48.5478" lon="-4.73859">
        <ele>18.4023438</ele>
        <time>2017-04-23T09:00:48Z</time>
      </trkpt>
      <trkpt lat="48.54775" lon="-4.7387">
        <ele>16.4797363</ele>
        <time>2017-04-23T09:00:54Z</time>
      </trkpt>
      <trkpt lat="48.54769" lon="-4.73873">
        <ele>17.4411621</ele>
        <time>2017-04-23T09:00:59Z</time>
      </trkpt>
      <trkpt lat="48.54766" lon="-4.73875">
        <ele>17.4411621</ele>
        <time>2017-04-23T09:01:02Z</time>
      </trkpt>
      <trkpt lat="48.54763" lon="-4.73885">
        <ele>18.8830566</ele>
        <time>2017-04-23T09:01:08Z</time>
      </trkpt>
      <trkpt lat="48.5476" lon="-4.73893">
        <ele>19.3637695</ele>
        <time>2017-04-23T09:01:12Z</time>
      </trkpt>
      <trkpt lat="48.54757" lon="-4.73902">
        <ele>19.3637695</ele>
        <time>2017-04-23T09:01:16Z</time>
      </trkpt>
      <trkpt lat="48.54756" lon="-4.73906">
        <ele>19.3637695</ele>
        <time>2017-04-23T09:01:18Z</time>
      </trkpt>
      <trkpt lat="48.54751" lon="-4.73917">
        <ele>19.8443604</ele>
        <time>2017-04-23T09:01:25Z</time>
      </trkpt>
      <trkpt lat="48.54748" lon="-4.73924">
        <ele>20.3249512</ele>
        <time>2017-04-23T09:01:31Z</time>
      </trkpt>
      <trkpt lat="48.54748" lon="-4.73926">
        <ele>20.3249512</ele>
        <time>2017-04-23T09:01:32Z</time>
      </trkpt>
      <trkpt lat="48.5475" lon="-4.73936">
        <ele>18.8830566</ele>
        <time>2017-04-23T09:01:38Z</time>
      </trkpt>
      <trkpt lat="48.54751" lon="-4.73946">
        <ele>18.8830566</ele>
        <time>2017-04-23T09:01:43Z</time>
      </trkpt>
      <trkpt lat="48.5475" lon="-4.73949">
        <ele>18.8830566</ele>
        <time>2017-04-23T09:01:45Z</time>
      </trkpt>
      <trkpt lat="48.54749" lon="-4.7396">
        <ele>18.8830566</ele>
        <time>2017-04-23T09:01:51Z</time>
      </trkpt>
      <trkpt lat="48.54746" lon="-4.73965">
        <ele>19.3637695</ele>
        <time>2017-04-23T09:01:55Z</time>
      </trkpt>
      <trkpt lat="48.54743" lon="-4.73969">
        <ele>19.3637695</ele>
        <time>2017-04-23T09:01:58Z</time>
      </trkpt>
      <trkpt lat="48.54738" lon="-4.73985">
        <ele>19.8443604</ele>
        <time>2017-04-23T09:02:06Z</time>
      </trkpt>
      <trkpt lat="48.54737" lon="-4.73995">
        <ele>19.8443604</ele>
        <time>2017-04-23T09:02:10Z</time>
      </trkpt>
      <trkpt lat="48.54733" lon="-4.74">
        <ele>20.8056641</ele>
        <time>2017-04-23T09:02:15Z</time>
      </trkpt>
      <trkpt lat="48.54732" lon="-4.74007">
        <ele>20.8056641</ele>
        <time>2017-04-23T09:02:19Z</time>
      </trkpt>
      <trkpt lat="48.54729" lon="-4.74014">
        <ele>20.8056641</ele>
        <time>2017-04-23T09:02:23Z</time>
      </trkpt>
      <trkpt lat="48.54725" lon="-4.7402">
        <ele>20.3249512</ele>
        <time>2017-04-23T09:02:27Z</time>
      </trkpt>
      <trkpt lat="48.54718" lon="-4.74032">
        <ele>19.3637695</ele>
        <time>2017-04-23T09:02:34Z</time>
      </trkpt>
      <trkpt lat="48.54715" lon="-4.74046">
        <ele>18.8830566</ele>
        <time>2017-04-23T09:02:40Z</time>
      </trkpt>
      <trkpt lat="48.5471" lon="-4.74061">
        <ele>18.4023438</ele>
        <time>2017-04-23T09:02:47Z</time>
      </trkpt>
      <trkpt lat="48.54706" lon="-4.74075">
        <ele>18.8830566</ele>
        <time>2017-04-23T09:02:53Z</time>
      </trkpt>
      <trkpt lat="48.54704" lon="-4.74088">
        <ele>18.8830566</ele>
        <time>2017-04-23T09:02:58Z</time>
      </trkpt>
      <trkpt lat="48.547" lon="-4.74104">
        <ele>18.4023438</ele>
        <time>2017-04-23T09:03:05Z</time>
      </trkpt>
      <trkpt lat="48.54697" lon="-4.74118">
        <ele>17.9217529</ele>
        <time>2017-04-23T09:03:11Z</time>
      </trkpt>
      <trkpt lat="48.54694" lon="-4.74133">
        <ele>17.4411621</ele>
        <time>2017-04-23T09:03:17Z</time>
      </trkpt>
      <trkpt lat="48.54692" lon="-4.74147">
        <ele>17.4411621</ele>
        <time>2017-04-23T09:03:23Z</time>
      </trkpt>
      <trkpt lat="48.54691" lon="-4.74163">
        <ele>17.9217529</ele>
        <time>2017-04-23T09:03:30Z</time>
      </trkpt>
      <trkpt lat="48.54691" lon="-4.74174">
        <ele>17.9217529</ele>
        <time>2017-04-23T09:03:35Z</time>
      </trkpt>
      <trkpt lat="48.54693" lon="-4.74192">
        <ele>18.4023438</ele>
        <time>2017-04-23T09:03:43Z</time>
      </trkpt>
      <trkpt lat="48.54693" lon="-4.74203">
        <ele>18.4023438</ele>
        <time>2017-04-23T09:03:48Z</time>
      </trkpt>
      <trkpt lat="48.54693" lon="-4.7422">
        <ele>17.9217529</ele>
        <time>2017-04-23T09:03:56Z</time>
      </trkpt>
      <trkpt lat="48.54694" lon="-4.74236">
        <ele>17.9217529</ele>
        <time>2017-04-23T09:04:02Z</time>
      </trkpt>
      <trkpt lat="48.54694" lon="-4.74248">
        <ele>16.9604492</ele>
        <time>2017-04-23T09:04:07Z</time>
      </trkpt>
      <trkpt lat="48.54697" lon="-4.74266">
        <ele>15.5184326</ele>
        <time>2017-04-23T09:04:14Z</time>
      </trkpt>
      <trkpt lat="48.54699" lon="-4.74278">
        <ele>15.0377197</ele>
        <time>2017-04-23T09:04:19Z</time>
      </trkpt>
      <trkpt lat="48.547" lon="-4.74293">
        <ele>14.5570068</ele>
        <time>2017-04-23T09:04:25Z</time>
      </trkpt>
      <trkpt lat="48.54696" lon="-4.74311">
        <ele>14.5570068</ele>
        <time>2017-04-23T09:04:32Z</time>
      </trkpt>
      <trkpt lat="48.54692" lon="-4.74321">
        <ele>15.0377197</ele>
        <time>2017-04-23T09:04:37Z</time>
      </trkpt>
      <trkpt lat="48.54682" lon="-4.74329">
        <ele>15.5184326</ele>
        <time>2017-04-23T09:04:44Z</time>
      </trkpt>
      <trkpt lat="48.5468" lon="-4.74338">
        <ele>15.0377197</ele>
        <time>2017-04-23T09:04:49Z</time>
      </trkpt>
      <trkpt lat="48.54684" lon="-4.74352">
        <ele>14.076416</ele>
        <time>2017-04-23T09:04:55Z</time>
      </trkpt>
      <trkpt lat="48.54686" lon="-4.74369">
        <ele>13.5958252</ele>
        <time>2017-04-23T09:05:02Z</time>
      </trkpt>
      <trkpt lat="48.54686" lon="-4.74383">
        <ele>14.076416</ele>
        <time>2017-04-23T09:05:08Z</time>
      </trkpt>
      <trkpt lat="48.54682" lon="-4.74392">
        <ele>13.5958252</ele>
        <time>2017-04-23T09:05:12Z</time>
      </trkpt>
      <trkpt lat="48.54673" lon="-4.74404">
        <ele>12.6343994</ele>
        <time>2017-04-23T09:05:19Z</time>
      </trkpt>
      <trkpt lat="48.54666" lon="-4.74414">
        <ele>12.6343994</ele>
        <time>2017-04-23T09:05:24Z</time>
      </trkpt>
      <trkpt lat="48.54658" lon="-4.74422">
        <ele>12.6343994</ele>
        <time>2017-04-23T09:05:29Z</time>
      </trkpt>
      <trkpt lat="48.54646" lon="-4.74426">
        <ele>13.5958252</ele>
        <time>2017-04-23T09:05:35Z</time>
      </trkpt>
      <trkpt lat="48.54639" lon="-4.74437">
        <ele>14.076416</ele>
        <time>2017-04-23T09:05:41Z</time>
      </trkpt>
      <trkpt lat="48.54631" lon="-4.74454">
        <ele>14.076416</ele>
        <time>2017-04-23T09:05:49Z</time>
      </trkpt>
      <trkpt lat="48.54625" lon="-4.74469">
        <ele>14.5570068</ele>
        <time>2017-04-23T09:05:56Z</time>
      </trkpt>
      <trkpt lat="48.54621" lon="-4.7448">
        <ele>14.5570068</ele>
        <time>2017-04-23T09:06:01Z</time>
      </trkpt>
      <trkpt lat="48.54616" lon="-4.74499">
        <ele>15.0377197</ele>
        <time>2017-04-23T09:06:09Z</time>
      </trkpt>
      <trkpt lat="48.54614" lon="-4.74517">
        <ele>15.5184326</ele>
        <time>2017-04-23T09:06:16Z</time>
      </trkpt>
      <trkpt lat="48.54612" lon="-4.74533">
        <ele>15.0377197</ele>
        <time>2017-04-23T09:06:22Z</time>
      </trkpt>
      <trkpt lat="48.54611" lon="-4.74548">
        <ele>15.5184326</ele>
        <time>2017-04-23T09:06:28Z</time>
      </trkpt>
      <trkpt lat="48.54615" lon="-4.74559">
        <ele>14.5570068</ele>
        <time>2017-04-23T09:06:33Z</time>
      </trkpt>
      <trkpt lat="48.54615" lon="-4.74574">
        <ele>14.076416</ele>
        <time>2017-04-23T09:06:39Z</time>
      </trkpt>
      <trkpt lat="48.54613" lon="-4.74576">
        <ele>14.076416</ele>
        <time>2017-04-23T09:06:40Z</time>
      </trkpt>
      <trkpt lat="48.54602" lon="-4.74583">
        <ele>13.5958252</ele>
        <time>2017-04-23T09:06:47Z</time>
      </trkpt>
      <trkpt lat="48.54598" lon="-4.74585">
        <ele>13.5958252</ele>
        <time>2017-04-23T09:06:49Z</time>
      </trkpt>
      <trkpt lat="48.54588" lon="-4.74581">
        <ele>13.1151123</ele>
        <time>2017-04-23T09:06:55Z</time>
      </trkpt>
      <trkpt lat="48.54578" lon="-4.74569">
        <ele>14.076416</ele>
        <time>2017-04-23T09:07:02Z</time>
      </trkpt>
      <trkpt lat="48.54567" lon="-4.74569">
        <ele>14.5570068</ele>
        <time>2017-04-23T09:07:08Z</time>
      </trkpt>
      <trkpt lat="48.54565" lon="-4.74569">
        <ele>15.0377197</ele>
        <time>2017-04-23T09:07:09Z</time>
      </trkpt>
      <trkpt lat="48.54558" lon="-4.74567">
        <ele>15.0377197</ele>
        <time>2017-04-23T09:07:13Z</time>
      </trkpt>
      <trkpt lat="48.54546" lon="-4.7457">
        <ele>15.9990234</ele>
        <time>2017-04-23T09:07:19Z</time>
      </trkpt>
      <trkpt lat="48.54535" lon="-4.74575">
        <ele>15.0377197</ele>
        <time>2017-04-23T09:07:26Z</time>
      </trkpt>
      <trkpt lat="48.54524" lon="-4.74584">
        <ele>14.5570068</ele>
        <time>2017-04-23T09:07:33Z</time>
      </trkpt>
      <trkpt lat="48.54517" lon="-4.74594">
        <ele>14.076416</ele>
        <time>2017-04-23T09:07:38Z</time>
      </trkpt>
      <trkpt lat="48.54507" lon="-4.74607">
        <ele>14.076416</ele>
        <time>2017-04-23T09:07:46Z</time>
      </trkpt>
      <trkpt lat="48.54499" lon="-4.74615">
        <ele>13.5958252</ele>
        <time>2017-04-23T09:07:52Z</time>
      </trkpt>
      <trkpt lat="48.5449" lon="-4.74629">
        <ele>12.1538086</ele>
        <time>2017-04-23T09:07:59Z</time>
      </trkpt>
      <trkpt lat="48.54487" lon="-4.74635">
        <ele>12.1538086</ele>
        <time>2017-04-23T09:08:02Z</time>
      </trkpt>
      <trkpt lat="48.54479" lon="-4.74645">
        <ele>11.6732178</ele>
        <time>2017-04-23T09:08:07Z</time>
      </trkpt>
      <trkpt lat="48.54478" lon="-4.74646">
        <ele>11.1925049</ele>
        <time>2017-04-23T09:08:08Z</time>
      </trkpt>
      <trkpt lat="48.54473" lon="-4.74653">
        <ele>11.1925049</ele>
        <time>2017-04-23T09:08:13Z</time>
      </trkpt>
      <trkpt lat="48.54465" lon="-4.74657">
        <ele>10.711792</ele>
        <time>2017-04-23T09:08:19Z</time>
      </trkpt>
      <trkpt lat="48.54462" lon="-4.74661">
        <ele>10.711792</ele>
        <time>2017-04-23T09:08:22Z</time>
      </trkpt>
      <trkpt lat="48.5445" lon="-4.74662">
        <ele>10.711792</ele>
        <time>2017-04-23T09:08:30Z</time>
      </trkpt>
      <trkpt lat="48.54441" lon="-4.74656">
        <ele>11.1925049</ele>
        <time>2017-04-23T09:08:37Z</time>
      </trkpt>
      <trkpt lat="48.5444" lon="-4.74656">
        <ele>11.1925049</ele>
        <time>2017-04-23T09:08:38Z</time>
      </trkpt>
      <trkpt lat="48.54437" lon="-4.74662">
        <ele>10.2312012</ele>
        <time>2017-04-23T09:08:42Z</time>
      </trkpt>
      <trkpt lat="48.54431" lon="-4.74677">
        <ele>9.7506104</ele>
        <time>2017-04-23T09:08:50Z</time>
      </trkpt>
      <trkpt lat="48.54425" lon="-4.74689">
        <ele>10.2312012</ele>
        <time>2017-04-23T09:08:56Z</time>
      </trkpt>
      <trkpt lat="48.54418" lon="-4.74703">
        <ele>10.2312012</ele>
        <time>2017-04-23T09:09:04Z</time>
      </trkpt>
      <trkpt lat="48.54409" lon="-4.74716">
        <ele>11.1925049</ele>
        <time>2017-04-23T09:09:11Z</time>
      </trkpt>
      <trkpt lat="48.54403" lon="-4.74728">
        <ele>11.1925049</ele>
        <time>2017-04-23T09:09:17Z</time>
      </trkpt>
      <trkpt lat="48.54398" lon="-4.74747">
        <ele>11.1925049</ele>
        <time>2017-04-23T09:09:25Z</time>
      </trkpt>
      <trkpt lat="48.54395" lon="-4.74759">
        <ele>11.6732178</ele>
        <time>2017-04-23T09:09:30Z</time>
      </trkpt>
      <trkpt lat="48.54391" lon="-4.74775">
        <ele>11.6732178</ele>
        <time>2017-04-23T09:09:37Z</time>
      </trkpt>
      <trkpt lat="48.54385" lon="-4.74794">
        <ele>13.1151123</ele>
        <time>2017-04-23T09:09:45Z</time>
      </trkpt>
      <trkpt lat="48.54378" lon="-4.74811">
        <ele>13.1151123</ele>
        <time>2017-04-23T09:09:53Z</time>
      </trkpt>
      <trkpt lat="48.54373" lon="-4.74823">
        <ele>13.1151123</ele>
        <time>2017-04-23T09:09:59Z</time>
      </trkpt>
      <trkpt lat="48.54366" lon="-4.74839">
        <ele>13.5958252</ele>
        <time>2017-04-23T09:10:07Z</time>
      </trkpt>
      <trkpt lat="48.54361" lon="-4.74855">
        <ele>13.5958252</ele>
        <time>2017-04-23T09:10:15Z</time>
      </trkpt>
      <trkpt lat="48.54358" lon="-4.74874">
        <ele>11.6732178</ele>
        <time>2017-04-23T09:10:23Z</time>
      </trkpt>
      <trkpt lat="48.54352" lon="-4.74889">
        <ele>11.1925049</ele>
        <time>2017-04-23T09:10:29Z</time>
      </trkpt>
      <trkpt lat="48.54349" lon="-4.74899">
        <ele>11.6732178</ele>
        <time>2017-04-23T09:10:34Z</time>
      </trkpt>
      <trkpt lat="48.54343" lon="-4.74911">
        <ele>12.6343994</ele>
        <time>2017-04-23T09:10:41Z</time>
      </trkpt>
      <trkpt lat="48.54335" lon="-4.74926">
        <ele>12.6343994</ele>
        <time>2017-04-23T09:10:49Z</time>
      </trkpt>
      <trkpt lat="48.5433" lon="-4.74943">
        <ele>13.5958252</ele>
        <time>2017-04-23T09:10:57Z</time>
      </trkpt>
      <trkpt lat="48.54321" lon="-4.74961">
        <ele>14.5570068</ele>
        <time>2017-04-23T09:11:06Z</time>
      </trkpt>
      <trkpt lat="48.54317" lon="-4.74975">
        <ele>15.0377197</ele>
        <time>2017-04-23T09:11:12Z</time>
      </trkpt>
      <trkpt lat="48.54316" lon="-4.74988">
        <ele>14.5570068</ele>
        <time>2017-04-23T09:11:18Z</time>
      </trkpt>
      <trkpt lat="48.54314" lon="-4.75002">
        <ele>15.0377197</ele>
        <time>2017-04-23T09:11:24Z</time>
      </trkpt>
      <trkpt lat="48.54313" lon="-4.75021">
        <ele>15.5184326</ele>
        <time>2017-04-23T09:11:31Z</time>
      </trkpt>
      <trkpt lat="48.54312" lon="-4.75039">
        <ele>15.9990234</ele>
        <time>2017-04-23T09:11:39Z</time>
      </trkpt>
      <trkpt lat="48.54312" lon="-4.75052">
        <ele>15.5184326</ele>
        <time>2017-04-23T09:11:45Z</time>
      </trkpt>
      <trkpt lat="48.54312" lon="-4.75067">
        <ele>15.0377197</ele>
        <time>2017-04-23T09:11:51Z</time>
      </trkpt>
      <trkpt lat="48.54312" lon="-4.7508">
        <ele>15.5184326</ele>
        <time>2017-04-23T09:11:57Z</time>
      </trkpt>
      <trkpt lat="48.54311" lon="-4.75094">
        <ele>15.9990234</ele>
        <time>2017-04-23T09:12:03Z</time>
      </trkpt>
      <trkpt lat="48.5431" lon="-4.75109">
        <ele>15.9990234</ele>
        <time>2017-04-23T09:12:10Z</time>
      </trkpt>
      <trkpt lat="48.54313" lon="-4.75122">
        <ele>16.4797363</ele>
        <time>2017-04-23T09:12:17Z</time>
      </trkpt>
      <trkpt lat="48.54318" lon="-4.75135">
        <ele>16.4797363</ele>
        <time>2017-04-23T09:12:24Z</time>
      </trkpt>
      <trkpt lat="48.54321" lon="-4.7514">
        <ele>16.4797363</ele>
        <time>2017-04-23T09:12:27Z</time>
      </trkpt>
      <trkpt lat="48.54322" lon="-4.75152">
        <ele>15.5184326</ele>
        <time>2017-04-23T09:12:33Z</time>
      </trkpt>
      <trkpt lat="48.5432" lon="-4.75158">
        <ele>15.0377197</ele>
        <time>2017-04-23T09:12:35Z</time>
      </trkpt>
      <trkpt lat="48.54321" lon="-4.75162">
        <ele>15.0377197</ele>
        <time>2017-04-23T09:12:40Z</time>
      </trkpt>
      <trkpt lat="48.54319" lon="-4.75161">
        <ele>15.5184326</ele>
        <time>2017-04-23T09:12:42Z</time>
      </trkpt>
      <trkpt lat="48.5431" lon="-4.75156">
        <ele>15.0377197</ele>
        <time>2017-04-23T09:12:49Z</time>
      </trkpt>
      <trkpt lat="48.5431" lon="-4.75153">
        <ele>15.5184326</ele>
        <time>2017-04-23T09:12:50Z</time>
      </trkpt>
      <trkpt lat="48.54309" lon="-4.75141">
        <ele>17.4411621</ele>
        <time>2017-04-23T09:12:56Z</time>
      </trkpt>
      <trkpt lat="48.54308" lon="-4.7513">
        <ele>18.4023438</ele>
        <time>2017-04-23T09:13:01Z</time>
      </trkpt>
      <trkpt lat="48.54304" lon="-4.75125">
        <ele>17.9217529</ele>
        <time>2017-04-23T09:13:05Z</time>
      </trkpt>
      <trkpt lat="48.54292" lon="-4.75118">
        <ele>18.4023438</ele>
        <time>2017-04-23T09:13:13Z</time>
      </trkpt>
      <trkpt lat="48.5428" lon="-4.75111">
        <ele>19.3637695</ele>
        <time>2017-04-23T09:13:21Z</time>
      </trkpt>
      <trkpt lat="48.54273" lon="-4.75104">
        <ele>19.3637695</ele>
        <time>2017-04-23T09:13:27Z</time>
      </trkpt>
      <trkpt lat="48.54263" lon="-4.75091">
        <ele>20.8056641</ele>
        <time>2017-04-23T09:13:36Z</time>
      </trkpt>
      <trkpt lat="48.54255" lon="-4.75081">
        <ele>21.286377</ele>
        <time>2017-04-23T09:13:43Z</time>
      </trkpt>
      <trkpt lat="48.54249" lon="-4.75072">
        <ele>21.7669678</ele>
        <time>2017-04-23T09:13:49Z</time>
      </trkpt>
      <trkpt lat="48.5424" lon="-4.75062">
        <ele>22.7282715</ele>
        <time>2017-04-23T09:13:57Z</time>
      </trkpt>
      <trkpt lat="48.54237" lon="-4.75062">
        <ele>22.7282715</ele>
        <time>2017-04-23T09:13:59Z</time>
      </trkpt>
      <trkpt lat="48.54233" lon="-4.75067">
        <ele>22.2475586</ele>
        <time>2017-04-23T09:14:03Z</time>
      </trkpt>
      <trkpt lat="48.54231" lon="-4.75072">
        <ele>22.2475586</ele>
        <time>2017-04-23T09:14:06Z</time>
      </trkpt>
      <trkpt lat="48.54232" lon="-4.75064">
        <ele>21.7669678</ele>
        <time>2017-04-23T09:14:11Z</time>
      </trkpt>
      <trkpt lat="48.54231" lon="-4.75059">
        <ele>22.2475586</ele>
        <time>2017-04-23T09:14:14Z</time>
      </trkpt>
      <trkpt lat="48.54217" lon="-4.75058">
        <ele>22.2475586</ele>
        <time>2017-04-23T09:14:23Z</time>
      </trkpt>
      <trkpt lat="48.54214" lon="-4.75057">
        <ele>21.7669678</ele>
        <time>2017-04-23T09:14:25Z</time>
      </trkpt>
      <trkpt lat="48.54203" lon="-4.75055">
        <ele>22.2475586</ele>
        <time>2017-04-23T09:14:31Z</time>
      </trkpt>
      <trkpt lat="48.54193" lon="-4.75051">
        <ele>22.7282715</ele>
        <time>2017-04-23T09:14:37Z</time>
      </trkpt>
      <trkpt lat="48.54182" lon="-4.75046">
        <ele>21.7669678</ele>
        <time>2017-04-23T09:14:44Z</time>
      </trkpt>
      <trkpt lat="48.54168" lon="-4.75044">
        <ele>21.7669678</ele>
        <time>2017-04-23T09:14:52Z</time>
      </trkpt>
      <trkpt lat="48.54155" lon="-4.75041">
        <ele>21.286377</ele>
        <time>2017-04-23T09:15:00Z</time>
      </trkpt>
      <trkpt lat="48.54138" lon="-4.75035">
        <ele>21.7669678</ele>
        <time>2017-04-23T09:15:10Z</time>
      </trkpt>
      <trkpt lat="48.54126" lon="-4.75031">
        <ele>21.7669678</ele>
        <time>2017-04-23T09:15:18Z</time>
      </trkpt>
      <trkpt lat="48.54121" lon="-4.7503">
        <ele>22.2475586</ele>
        <time>2017-04-23T09:15:21Z</time>
      </trkpt>
      <trkpt lat="48.5411" lon="-4.75035">
        <ele>21.286377</ele>
        <time>2017-04-23T09:15:27Z</time>
      </trkpt>
      <trkpt lat="48.54103" lon="-4.75037">
        <ele>19.8443604</ele>
        <time>2017-04-23T09:15:31Z</time>
      </trkpt>
      <trkpt lat="48.5409" lon="-4.75038">
        <ele>18.4023438</ele>
        <time>2017-04-23T09:15:37Z</time>
      </trkpt>
      <trkpt lat="48.54088" lon="-4.75039">
        <ele>18.4023438</ele>
        <time>2017-04-23T09:15:38Z</time>
      </trkpt>
      <trkpt lat="48.54075" lon="-4.75047">
        <ele>18.8830566</ele>
        <time>2017-04-23T09:15:45Z</time>
      </trkpt>
      <trkpt lat="48.54063" lon="-4.75054">
        <ele>17.9217529</ele>
        <time>2017-04-23T09:15:53Z</time>
      </trkpt>
      <trkpt lat="48.54055" lon="-4.75057">
        <ele>18.8830566</ele>
        <time>2017-04-23T09:15:58Z</time>
      </trkpt>
      <trkpt lat="48.54051" lon="-4.7506">
        <ele>19.3637695</ele>
        <time>2017-04-23T09:16:00Z</time>
      </trkpt>
      <trkpt lat="48.54041" lon="-4.75057">
        <ele>20.3249512</ele>
        <time>2017-04-23T09:16:07Z</time>
      </trkpt>
      <trkpt lat="48.54039" lon="-4.7505">
        <ele>20.3249512</ele>
        <time>2017-04-23T09:16:11Z</time>
      </trkpt>
      <trkpt lat="48.54033" lon="-4.75046">
        <ele>21.7669678</ele>
        <time>2017-04-23T09:16:17Z</time>
      </trkpt>
      <trkpt lat="48.54029" lon="-4.75044">
        <ele>22.7282715</ele>
        <time>2017-04-23T09:16:23Z</time>
      </trkpt>
      <trkpt lat="48.54032" lon="-4.75049">
        <ele>21.7669678</ele>
        <time>2017-04-23T09:16:28Z</time>
      </trkpt>
      <trkpt lat="48.54031" lon="-4.75051">
        <ele>19.8443604</ele>
        <time>2017-04-23T09:16:32Z</time>
      </trkpt>
      <trkpt lat="48.54028" lon="-4.75056">
        <ele>17.9217529</ele>
        <time>2017-04-23T09:16:37Z</time>
      </trkpt>
      <trkpt lat="48.54018" lon="-4.75051">
        <ele>16.4797363</ele>
        <time>2017-04-23T09:16:42Z</time>
      </trkpt>
      <trkpt lat="48.54013" lon="-4.75041">
        <ele>16.9604492</ele>
        <time>2017-04-23T09:16:48Z</time>
      </trkpt>
      <trkpt lat="48.54004" lon="-4.75031">
        <ele>16.9604492</ele>
        <time>2017-04-23T09:16:55Z</time>
      </trkpt>
      <trkpt lat="48.54002" lon="-4.75028">
        <ele>17.4411621</ele>
        <time>2017-04-23T09:16:57Z</time>
      </trkpt>
      <trkpt lat="48.53993" lon="-4.75017">
        <ele>17.4411621</ele>
        <time>2017-04-23T09:17:04Z</time>
      </trkpt>
      <trkpt lat="48.53986" lon="-4.7501">
        <ele>17.4411621</ele>
        <time>2017-04-23T09:17:09Z</time>
      </trkpt>
      <trkpt lat="48.53981" lon="-4.75006">
        <ele>17.4411621</ele>
        <time>2017-04-23T09:17:12Z</time>
      </trkpt>
      <trkpt lat="48.53968" lon="-4.75001">
        <ele>16.9604492</ele>
        <time>2017-04-23T09:17:19Z</time>
      </trkpt>
      <trkpt lat="48.53955" lon="-4.74997">
        <ele>16.4797363</ele>
        <time>2017-04-23T09:17:26Z</time>
      </trkpt>
      <trkpt lat="48.53941" lon="-4.74991">
        <ele>16.9604492</ele>
        <time>2017-04-23T09:17:32Z</time>
      </trkpt>
      <trkpt lat="48.53928" lon="-4.74984">
        <ele>16.4797363</ele>
        <time>2017-04-23T09:17:39Z</time>
      </trkpt>
      <trkpt lat="48.53919" lon="-4.74981">
        <ele>16.4797363</ele>
        <time>2017-04-23T09:17:44Z</time>
      </trkpt>
      <trkpt lat="48.53902" lon="-4.74975">
        <ele>17.4411621</ele>
        <time>2017-04-23T09:17:54Z</time>
      </trkpt>
      <trkpt lat="48.53885" lon="-4.74969">
        <ele>18.8830566</ele>
        <time>2017-04-23T09:18:05Z</time>
      </trkpt>
      <trkpt lat="48.5387" lon="-4.74967">
        <ele>18.8830566</ele>
        <time>2017-04-23T09:18:14Z</time>
      </trkpt>
      <trkpt lat="48.53858" lon="-4.74965">
        <ele>18.8830566</ele>
        <time>2017-04-23T09:18:21Z</time>
      </trkpt>
      <trkpt lat="48.53844" lon="-4.74957">
        <ele>19.3637695</ele>
        <time>2017-04-23T09:18:29Z</time>
      </trkpt>
      <trkpt lat="48.53834" lon="-4.74951">
        <ele>19.8443604</ele>
        <time>2017-04-23T09:18:35Z</time>
      </trkpt>
      <trkpt lat="48.53825" lon="-4.74945">
        <ele>19.8443604</ele>
        <time>2017-04-23T09:18:40Z</time>
      </trkpt>
      <trkpt lat="48.53814" lon="-4.74937">
        <ele>19.3637695</ele>
        <time>2017-04-23T09:18:47Z</time>
      </trkpt>
      <trkpt lat="48.53806" lon="-4.7493">
        <ele>18.4023438</ele>
        <time>2017-04-23T09:18:53Z</time>
      </trkpt>
      <trkpt lat="48.53797" lon="-4.74919">
        <ele>18.4023438</ele>
        <time>2017-04-23T09:19:00Z</time>
      </trkpt>
      <trkpt lat="48.5379" lon="-4.74909">
        <ele>18.4023438</ele>
        <time>2017-04-23T09:19:06Z</time>
      </trkpt>
      <trkpt lat="48.53779" lon="-4.74895">
        <ele>18.4023438</ele>
        <time>2017-04-23T09:19:15Z</time>
      </trkpt>
      <trkpt lat="48.53771" lon="-4.74889">
        <ele>18.4023438</ele>
        <time>2017-04-23T09:19:21Z</time>
      </trkpt>
      <trkpt lat="48.53762" lon="-4.74886">
        <ele>17.9217529</ele>
        <time>2017-04-23T09:19:27Z</time>
      </trkpt>
      <trkpt lat="48.53752" lon="-4.74877">
        <ele>17.4411621</ele>
        <time>2017-04-23T09:19:34Z</time>
      </trkpt>
      <trkpt lat="48.53743" lon="-4.7487">
        <ele>16.9604492</ele>
        <time>2017-04-23T09:19:41Z</time>
      </trkpt>
      <trkpt lat="48.53734" lon="-4.74863">
        <ele>17.4411621</ele>
        <time>2017-04-23T09:19:48Z</time>
      </trkpt>
      <trkpt lat="48.53724" lon="-4.74859">
        <ele>18.8830566</ele>
        <time>2017-04-23T09:19:56Z</time>
      </trkpt>
      <trkpt lat="48.53715" lon="-4.74857">
        <ele>18.8830566</ele>
        <time>2017-04-23T09:20:03Z</time>
      </trkpt>
      <trkpt lat="48.53704" lon="-4.74854">
        <ele>18.8830566</ele>
        <time>2017-04-23T09:20:11Z</time>
      </trkpt>
      <trkpt lat="48.53693" lon="-4.74851">
        <ele>18.4023438</ele>
        <time>2017-04-23T09:20:20Z</time>
      </trkpt>
      <trkpt lat="48.53684" lon="-4.74847">
        <ele>17.9217529</ele>
        <time>2017-04-23T09:20:27Z</time>
      </trkpt>
      <trkpt lat="48.53673" lon="-4.74843">
        <ele>18.4023438</ele>
        <time>2017-04-23T09:20:35Z</time>
      </trkpt>
      <trkpt lat="48.53667" lon="-4.74843">
        <ele>18.4023438</ele>
        <time>2017-04-23T09:20:40Z</time>
      </trkpt>
      <trkpt lat="48.53661" lon="-4.74842">
        <ele>17.9217529</ele>
        <time>2017-04-23T09:20:45Z</time>
      </trkpt>
      <trkpt lat="48.53649" lon="-4.74846">
        <ele>18.4023438</ele>
        <time>2017-04-23T09:20:54Z</time>
      </trkpt>
      <trkpt lat="48.5364" lon="-4.74847">
        <ele>17.9217529</ele>
        <time>2017-04-23T09:21:00Z</time>
      </trkpt>
      <trkpt lat="48.5363" lon="-4.74852">
        <ele>18.8830566</ele>
        <time>2017-04-23T09:21:08Z</time>
      </trkpt>
      <trkpt lat="48.53617" lon="-4.74857">
        <ele>19.3637695</ele>
        <time>2017-04-23T09:21:16Z</time>
      </trkpt>
      <trkpt lat="48.53606" lon="-4.74864">
        <ele>19.8443604</ele>
        <time>2017-04-23T09:21:23Z</time>
      </trkpt>
      <trkpt lat="48.53594" lon="-4.74873">
        <ele>19.3637695</ele>
        <time>2017-04-23T09:21:32Z</time>
      </trkpt>
      <trkpt lat="48.53583" lon="-4.74878">
        <ele>19.3637695</ele>
        <time>2017-04-23T09:21:40Z</time>
      </trkpt>
      <trkpt lat="48.53574" lon="-4.74882">
        <ele>18.8830566</ele>
        <time>2017-04-23T09:21:47Z</time>
      </trkpt>
      <trkpt lat="48.53564" lon="-4.74883">
        <ele>18.4023438</ele>
        <time>2017-04-23T09:21:54Z</time>
      </trkpt>
      <trkpt lat="48.53554" lon="-4.74889">
        <ele>16.9604492</ele>
        <time>2017-04-23T09:22:02Z</time>
      </trkpt>
      <trkpt lat="48.53545" lon="-4.74894">
        <ele>16.9604492</ele>
        <time>2017-04-23T09:22:09Z</time>
      </trkpt>
      <trkpt lat="48.53535" lon="-4.74901">
        <ele>16.4797363</ele>
        <time>2017-04-23T09:22:17Z</time>
      </trkpt>
      <trkpt lat="48.53527" lon="-4.74909">
        <ele>15.9990234</ele>
        <time>2017-04-23T09:22:23Z</time>
      </trkpt>
      <trkpt lat="48.53519" lon="-4.74916">
        <ele>16.4797363</ele>
        <time>2017-04-23T09:22:30Z</time>
      </trkpt>
      <trkpt lat="48.5351" lon="-4.74922">
        <ele>15.9990234</ele>
        <time>2017-04-23T09:22:37Z</time>
      </trkpt>
      <trkpt lat="48.535" lon="-4.74926">
        <ele>15.5184326</ele>
        <time>2017-04-23T09:22:44Z</time>
      </trkpt>
      <trkpt lat="48.5349" lon="-4.7493">
        <ele>15.0377197</ele>
        <time>2017-04-23T09:22:52Z</time>
      </trkpt>
      <trkpt lat="48.53476" lon="-4.74931">
        <ele>14.5570068</ele>
        <time>2017-04-23T09:23:01Z</time>
      </trkpt>
      <trkpt lat="48.53468" lon="-4.74939">
        <ele>13.5958252</ele>
        <time>2017-04-23T09:23:07Z</time>
      </trkpt>
      <trkpt lat="48.53459" lon="-4.74943">
        <ele>13.1151123</ele>
        <time>2017-04-23T09:23:14Z</time>
      </trkpt>
      <trkpt lat="48.53454" lon="-4.74949">
        <ele>12.1538086</ele>
        <time>2017-04-23T09:23:19Z</time>
      </trkpt>
      <trkpt lat="48.53446" lon="-4.74954">
        <ele>12.6343994</ele>
        <time>2017-04-23T09:23:25Z</time>
      </trkpt>
      <trkpt lat="48.53437" lon="-4.74955">
        <ele>13.5958252</ele>
        <time>2017-04-23T09:23:32Z</time>
      </trkpt>
      <trkpt lat="48.5343" lon="-4.74962">
        <ele>14.076416</ele>
        <time>2017-04-23T09:23:38Z</time>
      </trkpt>
      <trkpt lat="48.53422" lon="-4.74965">
        <ele>14.076416</ele>
        <time>2017-04-23T09:23:43Z</time>
      </trkpt>
      <trkpt lat="48.53415" lon="-4.74968">
        <ele>14.5570068</ele>
        <time>2017-04-23T09:23:49Z</time>
      </trkpt>
      <trkpt lat="48.53406" lon="-4.74977">
        <ele>14.5570068</ele>
        <time>2017-04-23T09:23:56Z</time>
      </trkpt>
      <trkpt lat="48.53398" lon="-4.74982">
        <ele>14.076416</ele>
        <time>2017-04-23T09:24:02Z</time>
      </trkpt>
      <trkpt lat="48.53392" lon="-4.74992">
        <ele>15.0377197</ele>
        <time>2017-04-23T09:24:08Z</time>
      </trkpt>
      <trkpt lat="48.53385" lon="-4.75004">
        <ele>15.5184326</ele>
        <time>2017-04-23T09:24:15Z</time>
      </trkpt>
      <trkpt lat="48.53377" lon="-4.75013">
        <ele>15.9990234</ele>
        <time>2017-04-23T09:24:21Z</time>
      </trkpt>
      <trkpt lat="48.53371" lon="-4.75031">
        <ele>15.5184326</ele>
        <time>2017-04-23T09:24:30Z</time>
      </trkpt>
      <trkpt lat="48.5337" lon="-4.75034">
        <ele>15.0377197</ele>
        <time>2017-04-23T09:24:31Z</time>
      </trkpt>
      <trkpt lat="48.53369" lon="-4.7505">
        <ele>12.1538086</ele>
        <time>2017-04-23T09:24:37Z</time>
      </trkpt>
      <trkpt lat="48.53366" lon="-4.75057">
        <ele>11.1925049</ele>
        <time>2017-04-23T09:24:41Z</time>
      </trkpt>
      <trkpt lat="48.53358" lon="-4.75068">
        <ele>11.6732178</ele>
        <time>2017-04-23T09:24:48Z</time>
      </trkpt>
      <trkpt lat="48.53352" lon="-4.75086">
        <ele>11.1925049</ele>
        <time>2017-04-23T09:24:56Z</time>
      </trkpt>
      <trkpt lat="48.53344" lon="-4.75098">
        <ele>9.7506104</ele>
        <time>2017-04-23T09:25:03Z</time>
      </trkpt>
      <trkpt lat="48.53336" lon="-4.751">
        <ele>10.2312012</ele>
        <time>2017-04-23T09:25:07Z</time>
      </trkpt>
      <trkpt lat="48.53326" lon="-4.75097">
        <ele>10.711792</ele>
        <time>2017-04-23T09:25:13Z</time>
      </trkpt>
      <trkpt lat="48.53315" lon="-4.75096">
        <ele>11.1925049</ele>
        <time>2017-04-23T09:25:20Z</time>
      </trkpt>
      <trkpt lat="48.53304" lon="-4.75098">
        <ele>11.6732178</ele>
        <time>2017-04-23T09:25:27Z</time>
      </trkpt>
      <trkpt lat="48.53294" lon="-4.75094">
        <ele>11.6732178</ele>
        <time>2017-04-23T09:25:34Z</time>
      </trkpt>
      <trkpt lat="48.53281" lon="-4.75084">
        <ele>12.1538086</ele>
        <time>2017-04-23T09:25:44Z</time>
      </trkpt>
      <trkpt lat="48.53272" lon="-4.75078">
        <ele>12.6343994</ele>
        <time>2017-04-23T09:25:51Z</time>
      </trkpt>
      <trkpt lat="48.53259" lon="-4.75062">
        <ele>11.1925049</ele>
        <time>2017-04-23T09:26:02Z</time>
      </trkpt>
      <trkpt lat="48.53252" lon="-4.75047">
        <ele>11.6732178</ele>
        <time>2017-04-23T09:26:10Z</time>
      </trkpt>
      <trkpt lat="48.53242" lon="-4.75041">
        <ele>12.1538086</ele>
        <time>2017-04-23T09:26:18Z</time>
      </trkpt>
      <trkpt lat="48.53233" lon="-4.75037">
        <ele>11.6732178</ele>
        <time>2017-04-23T09:26:25Z</time>
      </trkpt>
      <trkpt lat="48.53221" lon="-4.75033">
        <ele>11.1925049</ele>
        <time>2017-04-23T09:26:33Z</time>
      </trkpt>
      <trkpt lat="48.53209" lon="-4.75027">
        <ele>12.1538086</ele>
        <time>2017-04-23T09:26:42Z</time>
      </trkpt>
      <trkpt lat="48.53195" lon="-4.75024">
        <ele>13.5958252</ele>
        <time>2017-04-23T09:26:50Z</time>
      </trkpt>
      <trkpt lat="48.53183" lon="-4.75024">
        <ele>14.076416</ele>
        <time>2017-04-23T09:26:58Z</time>
      </trkpt>
      <trkpt lat="48.53172" lon="-4.75023">
        <ele>14.076416</ele>
        <time>2017-04-23T09:27:05Z</time>
      </trkpt>
      <trkpt lat="48.5316" lon="-4.75023">
        <ele>14.5570068</ele>
        <time>2017-04-23T09:27:12Z</time>
      </trkpt>
      <trkpt lat="48.53147" lon="-4.75023">
        <ele>14.076416</ele>
        <time>2017-04-23T09:27:20Z</time>
      </trkpt>
      <trkpt lat="48.53139" lon="-4.75027">
        <ele>14.076416</ele>
        <time>2017-04-23T09:27:25Z</time>
      </trkpt>
      <trkpt lat="48.53127" lon="-4.75033">
        <ele>13.1151123</ele>
        <time>2017-04-23T09:27:33Z</time>
      </trkpt>
      <trkpt lat="48.53117" lon="-4.75035">
        <ele>12.6343994</ele>
        <time>2017-04-23T09:27:40Z</time>
      </trkpt>
      <trkpt lat="48.53109" lon="-4.75028">
        <ele>11.6732178</ele>
        <time>2017-04-23T09:27:47Z</time>
      </trkpt>
      <trkpt lat="48.53099" lon="-4.75021">
        <ele>10.711792</ele>
        <time>2017-04-23T09:27:54Z</time>
      </trkpt>
      <trkpt lat="48.53088" lon="-4.75005">
        <ele>10.711792</ele>
        <time>2017-04-23T09:28:04Z</time>
      </trkpt>
      <trkpt lat="48.53078" lon="-4.74999">
        <ele>10.711792</ele>
        <time>2017-04-23T09:28:12Z</time>
      </trkpt>
      <trkpt lat="48.53067" lon="-4.74989">
        <ele>10.711792</ele>
        <time>2017-04-23T09:28:21Z</time>
      </trkpt>
      <trkpt lat="48.53057" lon="-4.74971">
        <ele>11.1925049</ele>
        <time>2017-04-23T09:28:31Z</time>
      </trkpt>
      <trkpt lat="48.53053" lon="-4.74962">
        <ele>10.711792</ele>
        <time>2017-04-23T09:28:37Z</time>
      </trkpt>
      <trkpt lat="48.53052" lon="-4.74957">
        <ele>10.711792</ele>
        <time>2017-04-23T09:28:40Z</time>
      </trkpt>
      <trkpt lat="48.53049" lon="-4.7495">
        <ele>10.711792</ele>
        <time>2017-04-23T09:28:44Z</time>
      </trkpt>
      <trkpt lat="48.53043" lon="-4.74936">
        <ele>10.2312012</ele>
        <time>2017-04-23T09:28:52Z</time>
      </trkpt>
      <trkpt lat="48.53036" lon="-4.7492">
        <ele>9.2698975</ele>
        <time>2017-04-23T09:29:01Z</time>
      </trkpt>
      <trkpt lat="48.53033" lon="-4.74915">
        <ele>8.7891846</ele>
        <time>2017-04-23T09:29:05Z</time>
      </trkpt>
      <trkpt lat="48.5303" lon="-4.74917">
        <ele>7.8278809</ele>
        <time>2017-04-23T09:29:09Z</time>
      </trkpt>
      <trkpt lat="48.53022" lon="-4.74927">
        <ele>7.347168</ele>
        <time>2017-04-23T09:29:16Z</time>
      </trkpt>
      <trkpt lat="48.53014" lon="-4.74927">
        <ele>6.8664551</ele>
        <time>2017-04-23T09:29:22Z</time>
      </trkpt>
      <trkpt lat="48.53004" lon="-4.74916">
        <ele>8.3085938</ele>
        <time>2017-04-23T09:29:31Z</time>
      </trkpt>
      <trkpt lat="48.52999" lon="-4.74906">
        <ele>9.7506104</ele>
        <time>2017-04-23T09:29:37Z</time>
      </trkpt>
      <trkpt lat="48.52995" lon="-4.74893">
        <ele>10.711792</ele>
        <time>2017-04-23T09:29:44Z</time>
      </trkpt>
      <trkpt lat="48.52994" lon="-4.74883">
        <ele>11.1925049</ele>
        <time>2017-04-23T09:29:49Z</time>
      </trkpt>
      <trkpt lat="48.53001" lon="-4.7487">
        <ele>12.6343994</ele>
        <time>2017-04-23T09:29:56Z</time>
      </trkpt>
      <trkpt lat="48.53001" lon="-4.74868">
        <ele>13.1151123</ele>
        <time>2017-04-23T09:29:57Z</time>
      </trkpt>
      <trkpt lat="48.53006" lon="-4.74861">
        <ele>14.5570068</ele>
        <time>2017-04-23T09:30:01Z</time>
      </trkpt>
      <trkpt lat="48.53003" lon="-4.74852">
        <ele>15.5184326</ele>
        <time>2017-04-23T09:30:06Z</time>
      </trkpt>
      <trkpt lat="48.52996" lon="-4.74843">
        <ele>16.4797363</ele>
        <time>2017-04-23T09:30:12Z</time>
      </trkpt>
      <trkpt lat="48.52987" lon="-4.74839">
        <ele>16.9604492</ele>
        <time>2017-04-23T09:30:18Z</time>
      </trkpt>
      <trkpt lat="48.52978" lon="-4.7483">
        <ele>16.9604492</ele>
        <time>2017-04-23T09:30:25Z</time>
      </trkpt>
      <trkpt lat="48.52971" lon="-4.7482">
        <ele>17.4411621</ele>
        <time>2017-04-23T09:30:32Z</time>
      </trkpt>
      <trkpt lat="48.52969" lon="-4.74806">
        <ele>18.4023438</ele>
        <time>2017-04-23T09:30:38Z</time>
      </trkpt>
      <trkpt lat="48.5297" lon="-4.74793">
        <ele>19.3637695</ele>
        <time>2017-04-23T09:30:44Z</time>
      </trkpt>
      <trkpt lat="48.52973" lon="-4.74775">
        <ele>18.8830566</ele>
        <time>2017-04-23T09:30:51Z</time>
      </trkpt>
      <trkpt lat="48.52976" lon="-4.74755">
        <ele>17.9217529</ele>
        <time>2017-04-23T09:31:00Z</time>
      </trkpt>
      <trkpt lat="48.52982" lon="-4.74737">
        <ele>17.9217529</ele>
        <time>2017-04-23T09:31:09Z</time>
      </trkpt>
      <trkpt lat="48.52988" lon="-4.74724">
        <ele>17.9217529</ele>
        <time>2017-04-23T09:31:16Z</time>
      </trkpt>
      <trkpt lat="48.52995" lon="-4.74708">
        <ele>18.4023438</ele>
        <time>2017-04-23T09:31:24Z</time>
      </trkpt>
      <trkpt lat="48.52999" lon="-4.74695">
        <ele>17.4411621</ele>
        <time>2017-04-23T09:31:31Z</time>
      </trkpt>
      <trkpt lat="48.52991" lon="-4.74679">
        <ele>16.9604492</ele>
        <time>2017-04-23T09:31:39Z</time>
      </trkpt>
      <trkpt lat="48.52984" lon="-4.74668">
        <ele>17.9217529</ele>
        <time>2017-04-23T09:31:46Z</time>
      </trkpt>
      <trkpt lat="48.52975" lon="-4.7466">
        <ele>17.4411621</ele>
        <time>2017-04-23T09:31:53Z</time>
      </trkpt>
      <trkpt lat="48.52966" lon="-4.74652">
        <ele>15.9990234</ele>
        <time>2017-04-23T09:32:00Z</time>
      </trkpt>
      <trkpt lat="48.52957" lon="-4.74644">
        <ele>15.0377197</ele>
        <time>2017-04-23T09:32:07Z</time>
      </trkpt>
      <trkpt lat="48.52952" lon="-4.74638">
        <ele>14.5570068</ele>
        <time>2017-04-23T09:32:11Z</time>
      </trkpt>
      <trkpt lat="48.52942" lon="-4.74628">
        <ele>13.1151123</ele>
        <time>2017-04-23T09:32:19Z</time>
      </trkpt>
      <trkpt lat="48.52931" lon="-4.7462">
        <ele>12.1538086</ele>
        <time>2017-04-23T09:32:28Z</time>
      </trkpt>
      <trkpt lat="48.52925" lon="-4.74619">
        <ele>11.6732178</ele>
        <time>2017-04-23T09:32:34Z</time>
      </trkpt>
      <trkpt lat="48.52913" lon="-4.74614">
        <ele>10.2312012</ele>
        <time>2017-04-23T09:32:43Z</time>
      </trkpt>
      <trkpt lat="48.52909" lon="-4.74616">
        <ele>10.2312012</ele>
        <time>2017-04-23T09:32:47Z</time>
      </trkpt>
      <trkpt lat="48.52906" lon="-4.74617">
        <ele>10.2312012</ele>
        <time>2017-04-23T09:32:49Z</time>
      </trkpt>
      <trkpt lat="48.52905" lon="-4.74616">
        <ele>10.2312012</ele>
        <time>2017-04-23T09:32:55Z</time>
      </trkpt>
      <trkpt lat="48.52903" lon="-4.74618">
        <ele>10.2312012</ele>
        <time>2017-04-23T09:32:58Z</time>
      </trkpt>
    </trkseg>
  </trk>
</gpx>